Observation data for Claude 12 Southwest on 05/16/2018      Previous  Date  Next       Current Mesonet Observations  Soil Data  Daily Summary Page  Observations in Plain Language
KCL1 160500Z 35005KT 17/10 A3002 RMK A01 T01680098  RH  063%=      5-min Rain = 0
KCL1 160501Z 33003KT 17/10 A3002 RMK A01 T01680099  RH  063%=      5-min Rain = 0
KCL1 160502Z 33003KT 17/10 A3002 RMK A01 T01680099  RH  064%=      5-min Rain = 0
KCL1 160503Z 33003KT 17/10 A3002 RMK A01 T01670099  RH  064%=      5-min Rain = 0
KCL1 160504Z 33003KT 17/10 A3002 RMK A01 T01660098  RH  064%=      5-min Rain = 0
KCL1 160505Z 32003KT 17/10 A3002 RMK A01 T01660098  RH  064%=      5-min Rain = 0
KCL1 160506Z 31003KT 17/10 A3003 RMK A01 T01660098  RH  064%=      5-min Rain = 0
KCL1 160507Z 31004KT 17/10 A3003 RMK A01 T01660095  RH  063%=      5-min Rain = 0
KCL1 160508Z 30004KT 17/09 A3003 RMK A01 T01680093  RH  061%=      5-min Rain = 0
KCL1 160509Z 28004KT 17/09 A3003 RMK A01 T01710091  RH  060%=      5-min Rain = 0
KCL1 160510Z 26003KT 17/09 A3003 RMK A01 T01740093  RH  059%=      5-min Rain = 0
KCL1 160511Z 25003KT 17/09 A3003 RMK A01 T01740092  RH  058%=      5-min Rain = 0
KCL1 160512Z 24003KT 18/09 A3003 RMK A01 T01750090  RH  057%=      5-min Rain = 0
KCL1 160513Z 24003KT 18/09 A3003 RMK A01 T01770089  RH  056%=      5-min Rain = 0
KCL1 160514Z 24003KT 18/09 A3003 RMK A01 T01790089  RH  056%=      5-min Rain = 0
KCL1 160515Z 24003KT 18/09 A3003 RMK A01 T01800088  RH  055%=      5-min Rain = 0
KCL1 160516Z 23004KT 18/09 A3003 RMK A01 T01810088  RH  054%=      5-min Rain = 0
KCL1 160517Z 24004KT 18/09 A3003 RMK A01 T01820088  RH  054%=      5-min Rain = 0
KCL1 160518Z 24005KT 18/09 A3003 RMK A01 T01820088  RH  054%=      5-min Rain = 0
KCL1 160519Z 24005KT 18/09 A3003 RMK A01 T01820088  RH  054%=      5-min Rain = 0
KCL1 160520Z 23004KT 18/09 A3003 RMK A01 T01810089  RH  055%=      5-min Rain = 0
KCL1 160521Z 23004KT 18/09 A3003 RMK A01 T01810089  RH  055%=      5-min Rain = 0
KCL1 160522Z 22004KT 18/09 A3003 RMK A01 T01800090  RH  055%=      5-min Rain = 0
KCL1 160523Z 22004KT 18/09 A3003 RMK A01 T01790089  RH  056%=      5-min Rain = 0
KCL1 160524Z 22005KT 18/09 A3003 RMK A01 T01790089  RH  055%=      5-min Rain = 0
KCL1 160525Z 23006KT 18/09 A3003 RMK A01 T01790089  RH  055%=      5-min Rain = 0
KCL1 160526Z 23005KT 18/09 A3003 RMK A01 T01790090  RH  056%=      5-min Rain = 0
KCL1 160527Z 23003KT 18/09 A3003 RMK A01 T01800090  RH  056%=      5-min Rain = 0
KCL1 160528Z 22002KT 18/09 A3003 RMK A01 T01800090  RH  056%=      5-min Rain = 0
KCL1 160529Z 23002KT 18/09 A3003 RMK A01 T01800090  RH  056%=      5-min Rain = 0
KCL1 160530Z 24003KT 18/09 A3003 RMK A01 T01800090  RH  056%=      5-min Rain = 0
KCL1 160531Z 25003KT 18/09 A3003 RMK A01 T01800089  RH  055%=      5-min Rain = 0
KCL1 160532Z 26003KT 18/09 A3003 RMK A01 T01820087  RH  054%=      5-min Rain = 0
KCL1 160533Z 24004KT 19/08 A3003 RMK A01 T01850084  RH  052%=      5-min Rain = 0
KCL1 160534Z 21005KT 19/09 A3003 RMK A01 T01870090  RH  053%=      5-min Rain = 0
KCL1 160535Z 20004KT 19/09 A3003 RMK A01 T01850090  RH  054%=      5-min Rain = 0
KCL1 160536Z 20003KT 18/09 A3003 RMK A01 T01830090  RH  055%=      5-min Rain = 0
KCL1 160537Z 20002KT 18/09 A3003 RMK A01 T01810089  RH  055%=      5-min Rain = 0
KCL1 160538Z 23002KT 18/09 A3003 RMK A01 T01800090  RH  056%=      5-min Rain = 0
KCL1 160539Z 26002KT 18/09 A3003 RMK A01 T01800090  RH  056%=      5-min Rain = 0
KCL1 160540Z 24002KT 18/09 A3003 RMK A01 T01790090  RH  056%=      5-min Rain = 0
KCL1 160541Z 22002KT 18/09 A3003 RMK A01 T01780090  RH  056%=      5-min Rain = 0
KCL1 160542Z 21003KT 18/09 A3003 RMK A01 T01770090  RH  057%=      5-min Rain = 0
KCL1 160543Z 20003KT 18/09 A3003 RMK A01 T01760091  RH  057%=      5-min Rain = 0
KCL1 160544Z 21004KT 18/09 A3003 RMK A01 T01750090  RH  057%=      5-min Rain = 0
KCL1 160545Z 21004KT 18/09 A3003 RMK A01 T01760091  RH  057%=      5-min Rain = 0
KCL1 160546Z 22004KT 18/09 A3003 RMK A01 T01760091  RH  057%=      5-min Rain = 0
KCL1 160547Z 22003KT 18/09 A3003 RMK A01 T01760090  RH  057%=      5-min Rain = 0
KCL1 160548Z 23002KT 18/09 A3003 RMK A01 T01760088  RH  056%=      5-min Rain = 0
KCL1 160549Z 25002KT 18/09 A3003 RMK A01 T01770086  RH  055%=      5-min Rain = 0
KCL1 160550Z 25002KT 18/09 A3003 RMK A01 T01780085  RH  054%=      5-min Rain = 0
KCL1 160551Z 25001KT 18/09 A3003 RMK A01 T01800085  RH  054%=      5-min Rain = 0
KCL1 160552Z 26001KT 18/09 A3003 RMK A01 T01810086  RH  054%=      5-min Rain = 0
KCL1 160553Z 27001KT 18/09 A3003 RMK A01 T01810086  RH  054%=      5-min Rain = 0
KCL1 160554Z 27001KT 18/08 A3003 RMK A01 T01810082  RH  053%=      5-min Rain = 0
KCL1 160555Z 00000KT 18/08 A3003 RMK A01 T01810075  RH  050%=      5-min Rain = 0
KCL1 160556Z 00000KT 19/07 A3003 RMK A01 T01850072  RH  048%=      5-min Rain = 0
KCL1 160557Z 00000KT 19/08 A3003 RMK A01 T01900075  RH  047%=      5-min Rain = 0
KCL1 160558Z 27001KT 19/08 A3003 RMK A01 T01920077  RH  047%=      5-min Rain = 0
KCL1 160559Z 26002KT 19/08 A3003 RMK A01 T01920077  RH  047%=      5-min Rain = 0
KCL1 160600Z 26001KT 19/08 A3003 RMK A01 T01920076  RH  047%=      5-min Rain = 0
KCL1 160601Z 28002KT 19/08 A3003 RMK A01 T01920076  RH  047%=      5-min Rain = 0
KCL1 160602Z 32004KT 19/08 A3003 RMK A01 T01930076  RH  047%=      5-min Rain = 0
KCL1 160603Z 32005KT 19/09 A3004 RMK A01 T01900085  RH  051%=      5-min Rain = 0
KCL1 160604Z 34005KT 18/09 A3004 RMK A01 T01830086  RH  053%=      5-min Rain = 0
KCL1 160605Z 02006KT 18/09 A3004 RMK A01 T01760086  RH  055%=      5-min Rain = 0
KCL1 160606Z 02010KT 17/09 A3004 RMK A01 T01700089  RH  059%=      5-min Rain = 0
KCL1 160607Z 02010KT 16/09 A3004 RMK A01 T01620089  RH  062%=      5-min Rain = 0
KCL1 160608Z 01010KT 16/09 A3004 RMK A01 T01590090  RH  064%=      5-min Rain = 0
KCL1 160609Z 00010KT 16/09 A3004 RMK A01 T01570091  RH  065%=      5-min Rain = 0
KCL1 160610Z 36009KT 16/09 A3004 RMK A01 T01560092  RH  066%=      5-min Rain = 0
KCL1 160611Z 34010KT 16/09 A3004 RMK A01 T01550093  RH  066%=      5-min Rain = 0
KCL1 160612Z 34011KT 16/09 A3004 RMK A01 T01550092  RH  066%=      5-min Rain = 0
KCL1 160613Z 33010KT 16/09 A3004 RMK A01 T01580091  RH  065%=      5-min Rain = 0
KCL1 160614Z 33009KT 16/09 A3004 RMK A01 T01610092  RH  064%=      5-min Rain = 0
KCL1 160615Z 32008KT 16/09 A3004 RMK A01 T01630092  RH  063%=      5-min Rain = 0
KCL1 160616Z 32009KT 16/09 A3004 RMK A01 T01620093  RH  063%=      5-min Rain = 0
KCL1 160617Z 32009KT 16/09 A3004 RMK A01 T01610094  RH  064%=      5-min Rain = 0
KCL1 160618Z 31010KT 16/09 A3004 RMK A01 T01600094  RH  065%=      5-min Rain = 0
KCL1 160619Z 31009KT 16/10 A3004 RMK A01 T01600095  RH  065%=      5-min Rain = 0
KCL1 160620Z 31008KT 16/10 A3004 RMK A01 T01600096  RH  065%=      5-min Rain = 0
KCL1 160621Z 31009KT 16/10 A3004 RMK A01 T01610097  RH  066%=      5-min Rain = 0
KCL1 160622Z 31009KT 16/10 A3004 RMK A01 T01610097  RH  066%=      5-min Rain = 0
KCL1 160623Z 31006KT 16/10 A3004 RMK A01 T01620098  RH  066%=      5-min Rain = 0
KCL1 160624Z 23005KT 16/10 A3005 RMK A01 T01630099  RH  066%=      5-min Rain = 0
KCL1 160625Z 16014G20KT 17/10 A3006 RMK A01 T01650098  RH  065%=      5-min Rain = 0
KCL1 160626Z 16018KT 17/10 A3006 RMK A01 T01680095  RH  062%=      5-min Rain = 0
KCL1 160627Z 19014KT 17/09 A3007 RMK A01 T01710094  RH  060%=      5-min Rain = 0
KCL1 160628Z 19013KT 17/09 A3007 RMK A01 T01730092  RH  059%=      5-min Rain = 0
KCL1 160629Z 20010G15KT 18/09 A3007 RMK A01 T01750092  RH  058%=      5-min Rain = 0
KCL1 160630Z 23009KT 18/09 A3007 RMK A01 T01760090  RH  057%=      5-min Rain = 0
KCL1 160631Z 23008KT 18/09 A3006 RMK A01 T01780089  RH  056%=      5-min Rain = 0
KCL1 160632Z 22010KT 18/09 A3006 RMK A01 T01800090  RH  056%=      5-min Rain = 0
KCL1 160633Z 21008KT 18/09 A3007 RMK A01 T01800091  RH  056%=      5-min Rain = 0
KCL1 160634Z 20010KT 18/09 A3007 RMK A01 T01800091  RH  056%=      5-min Rain = 0
KCL1 160635Z 19010KT 18/09 A3007 RMK A01 T01790092  RH  057%=      5-min Rain = 0
KCL1 160636Z 19010KT 18/09 A3007 RMK A01 T01770092  RH  057%=      5-min Rain = 0
KCL1 160637Z 18010KT 18/09 A3007 RMK A01 T01770091  RH  057%=      5-min Rain = 0
KCL1 160638Z 20007KT 18/09 A3007 RMK A01 T01770091  RH  057%=      5-min Rain = 0
KCL1 160639Z 23009KT 18/09 A3007 RMK A01 T01770091  RH  057%=      5-min Rain = 0
KCL1 160640Z 23011KT 18/09 A3006 RMK A01 T01790091  RH  057%=      5-min Rain = 0
KCL1 160641Z 25006KT 18/09 A3006 RMK A01 T01800091  RH  056%=      5-min Rain = 0
KCL1 160642Z 22004KT 18/09 A3006 RMK A01 T01810091  RH  056%=      5-min Rain = 0
KCL1 160643Z 20004KT 18/09 A3007 RMK A01 T01810091  RH  056%=      5-min Rain = 0
KCL1 160644Z 19005KT 18/09 A3007 RMK A01 T01810091  RH  056%=      5-min Rain = 0
KCL1 160645Z 19005KT 18/09 A3008 RMK A01 T01800092  RH  056%=      5-min Rain = 0
KCL1 160646Z 19005KT 18/09 A3008 RMK A01 T01790092  RH  057%=      5-min Rain = 0
KCL1 160647Z 19004KT 18/09 A3008 RMK A01 T01780091  RH  057%=      5-min Rain = 0
KCL1 160648Z 21004KT 18/09 A3008 RMK A01 T01780091  RH  057%=      5-min Rain = 0
KCL1 160649Z 25003KT 18/09 A3008 RMK A01 T01780091  RH  057%=      5-min Rain = 0
KCL1 160650Z 28004KT 18/09 A3007 RMK A01 T01780091  RH  057%=      5-min Rain = 0
KCL1 160651Z 30004KT 18/09 A3007 RMK A01 T01760091  RH  057%=      5-min Rain = 0
KCL1 160652Z 31005KT 18/09 A3007 RMK A01 T01750090  RH  058%=      5-min Rain = 0
KCL1 160653Z 32005KT 17/09 A3007 RMK A01 T01730090  RH  058%=      5-min Rain = 0
KCL1 160654Z 31004KT 17/09 A3008 RMK A01 T01730090  RH  058%=      5-min Rain = 0
KCL1 160655Z 31004KT 17/09 A3008 RMK A01 T01720090  RH  059%=      5-min Rain = 0
KCL1 160656Z 29003KT 17/09 A3008 RMK A01 T01720090  RH  059%=      5-min Rain = 0
KCL1 160657Z 28004KT 17/09 A3008 RMK A01 T01710090  RH  059%=      5-min Rain = 0
KCL1 160658Z 29005KT 17/09 A3008 RMK A01 T01710091  RH  059%=      5-min Rain = 0
KCL1 160659Z 30005KT 17/09 A3008 RMK A01 T01710091  RH  059%=      5-min Rain = 0
KCL1 160700Z 31005KT 17/09 A3007 RMK A01 T01700091  RH  059%=      5-min Rain = 0
KCL1 160701Z 31004KT 17/09 A3007 RMK A01 T01700091  RH  059%=      5-min Rain = 0
KCL1 160702Z 26004KT 17/09 A3007 RMK A01 T01700091  RH  059%=      5-min Rain = 0
KCL1 160703Z 26004KT 17/09 A3008 RMK A01 T01710090  RH  059%=      5-min Rain = 0
KCL1 160704Z 27004KT 17/09 A3008 RMK A01 T01710091  RH  059%=      5-min Rain = 0
KCL1 160705Z 30003KT 17/09 A3007 RMK A01 T01710091  RH  059%=      5-min Rain = 0
KCL1 160706Z 32004KT 17/09 A3007 RMK A01 T01710091  RH  059%=      5-min Rain = 0
KCL1 160707Z 31005KT 17/09 A3007 RMK A01 T01710092  RH  060%=      5-min Rain = 0
KCL1 160708Z 31005KT 17/09 A3007 RMK A01 T01680092  RH  061%=      5-min Rain = 0
KCL1 160709Z 30006KT 17/09 A3007 RMK A01 T01660092  RH  062%=      5-min Rain = 0
KCL1 160710Z 31006KT 16/09 A3007 RMK A01 T01640093  RH  063%=      5-min Rain = 0
KCL1 160711Z 31006KT 16/09 A3007 RMK A01 T01630093  RH  063%=      5-min Rain = 0
KCL1 160712Z 30006KT 16/09 A3007 RMK A01 T01620094  RH  064%=      5-min Rain = 0
KCL1 160713Z 30005KT 16/10 A3007 RMK A01 T01620095  RH  064%=      5-min Rain = 0
KCL1 160714Z 30004KT 16/09 A3007 RMK A01 T01620094  RH  064%=      5-min Rain = 0
KCL1 160715Z 32003KT 16/10 A3007 RMK A01 T01640095  RH  064%=      5-min Rain = 0
KCL1 160716Z 31003KT 16/10 A3007 RMK A01 T01640095  RH  064%=      5-min Rain = 0
KCL1 160717Z 31002KT 16/10 A3007 RMK A01 T01640096  RH  064%=      5-min Rain = 0
KCL1 160718Z 30002KT 16/10 A3007 RMK A01 T01640095  RH  064%=      5-min Rain = 0
KCL1 160719Z 30002KT 16/10 A3007 RMK A01 T01640096  RH  064%=      5-min Rain = 0
KCL1 160720Z 31003KT 16/10 A3007 RMK A01 T01640095  RH  064%=      5-min Rain = 0
KCL1 160721Z 30004KT 16/10 A3007 RMK A01 T01630095  RH  064%=      5-min Rain = 0
KCL1 160722Z 31004KT 16/10 A3007 RMK A01 T01630095  RH  064%=      5-min Rain = 0
KCL1 160723Z 33003KT 16/10 A3007 RMK A01 T01630095  RH  064%=      5-min Rain = 0
KCL1 160724Z 32003KT 16/10 A3007 RMK A01 T01640096  RH  064%=      5-min Rain = 0
KCL1 160725Z 31003KT 16/10 A3007 RMK A01 T01630096  RH  064%=      5-min Rain = 0
KCL1 160726Z 29002KT 16/10 A3008 RMK A01 T01630096  RH  065%=      5-min Rain = 0
KCL1 160727Z 31001KT 16/10 A3008 RMK A01 T01620096  RH  065%=      5-min Rain = 0
KCL1 160728Z 31002KT 16/10 A3008 RMK A01 T01610096  RH  065%=      5-min Rain = 0
KCL1 160729Z 31003KT 16/10 A3008 RMK A01 T01600096  RH  066%=      5-min Rain = 0
KCL1 160730Z 31003KT 16/10 A3008 RMK A01 T01600097  RH  066%=      5-min Rain = 0
KCL1 160731Z 31005KT 16/10 A3008 RMK A01 T01590097  RH  067%=      5-min Rain = 0
KCL1 160732Z 32006KT 16/10 A3008 RMK A01 T01580098  RH  068%=      5-min Rain = 0
KCL1 160733Z 32005KT 16/10 A3007 RMK A01 T01570099  RH  068%=      5-min Rain = 0
KCL1 160734Z 33006KT 16/10 A3007 RMK A01 T01570099  RH  068%=      5-min Rain = 0
KCL1 160735Z 32007KT 16/10 A3007 RMK A01 T01580101  RH  069%=      5-min Rain = 0
KCL1 160736Z 32008KT 16/10 A3007 RMK A01 T01580101  RH  069%=      5-min Rain = 0
KCL1 160737Z 33008KT 16/10 A3007 RMK A01 T01580103  RH  070%=      5-min Rain = 0
KCL1 160738Z 33007KT 16/10 A3007 RMK A01 T01580104  RH  070%=      5-min Rain = 0
KCL1 160739Z 33005KT 16/11 A3007 RMK A01 T01580106  RH  071%=      5-min Rain = 0
KCL1 160740Z 33004KT 16/11 A3007 RMK A01 T01580106  RH  071%=      5-min Rain = 0
KCL1 160741Z 33004KT 16/11 A3007 RMK A01 T01580107  RH  072%=      5-min Rain = 0
KCL1 160742Z 33005KT 16/11 A3007 RMK A01 T01570108  RH  072%=      5-min Rain = 0
KCL1 160743Z 34005KT 16/11 A3007 RMK A01 T01560109  RH  073%=      5-min Rain = 0
KCL1 160744Z 34005KT 16/11 A3007 RMK A01 T01560110  RH  074%=      5-min Rain = 0
KCL1 160745Z 34005KT 16/11 A3007 RMK A01 T01550111  RH  075%=      5-min Rain = 0
KCL1 160746Z 35004KT 16/11 A3007 RMK A01 T01550111  RH  075%=      5-min Rain = 0
KCL1 160747Z 35005KT 15/11 A3007 RMK A01 T01540112  RH  076%=      5-min Rain = 0
KCL1 160748Z 35004KT 15/11 A3007 RMK A01 T01540113  RH  076%=      5-min Rain = 0
KCL1 160749Z 35005KT 15/11 A3007 RMK A01 T01540113  RH  076%=      5-min Rain = 0
KCL1 160750Z 35007KT 15/11 A3007 RMK A01 T01540112  RH  076%=      5-min Rain = 0
KCL1 160751Z 35005KT 16/11 A3007 RMK A01 T01550113  RH  076%=      5-min Rain = 0
KCL1 160752Z 34005KT 16/11 A3007 RMK A01 T01550113  RH  076%=      5-min Rain = 0
KCL1 160753Z 35008KT 16/11 A3007 RMK A01 T01560114  RH  076%=      5-min Rain = 0
KCL1 160754Z 35008KT 16/11 A3007 RMK A01 T01580114  RH  075%=      5-min Rain = 0
KCL1 160755Z 35009KT 16/11 A3007 RMK A01 T01590113  RH  074%=      5-min Rain = 0
KCL1 160756Z 35009KT 16/11 A3007 RMK A01 T01600112  RH  073%=      5-min Rain = 0
KCL1 160757Z 35009KT 16/11 A3007 RMK A01 T01610112  RH  073%=      5-min Rain = 0
KCL1 160758Z 35010KT 16/11 A3007 RMK A01 T01620112  RH  072%=      5-min Rain = 0
KCL1 160759Z 35010KT 16/11 A3007 RMK A01 T01620113  RH  072%=      5-min Rain = 0
KCL1 160800Z 35009KT 16/11 A3007 RMK A01 T01600113  RH  073%=      5-min Rain = 0
KCL1 160801Z 36009KT 16/11 A3006 RMK A01 T01580113  RH  074%=      5-min Rain = 0
KCL1 160802Z 36008KT 16/11 A3007 RMK A01 T01560113  RH  075%=      5-min Rain = 0
KCL1 160803Z 00007KT 15/11 A3007 RMK A01 T01540112  RH  076%=      5-min Rain = 0
KCL1 160804Z 00007KT 15/11 A3007 RMK A01 T01530111  RH  076%=      5-min Rain = 0
KCL1 160805Z 35008KT 15/11 A3006 RMK A01 T01500111  RH  077%=      5-min Rain = 0
KCL1 160806Z 35009KT 15/11 A3006 RMK A01 T01480111  RH  078%=      5-min Rain = 0
KCL1 160807Z 35009KT 15/11 A3006 RMK A01 T01470111  RH  079%=      5-min Rain = 0
KCL1 160808Z 35008KT 15/11 A3006 RMK A01 T01470112  RH  079%=      5-min Rain = 0
KCL1 160809Z 35008KT 15/11 A3006 RMK A01 T01460112  RH  080%=      5-min Rain = 0
KCL1 160810Z 00007KT 15/11 A3006 RMK A01 T01460112  RH  080%=      5-min Rain = 0
KCL1 160811Z 00007KT 15/11 A3006 RMK A01 T01460113  RH  081%=      5-min Rain = 0
KCL1 160812Z 00007KT 15/11 A3006 RMK A01 T01450113  RH  081%=      5-min Rain = 0
KCL1 160813Z 00006KT 14/11 A3006 RMK A01 T01440113  RH  081%=      5-min Rain = 0
KCL1 160814Z 01006KT 15/11 A3006 RMK A01 T01450114  RH  082%=      5-min Rain = 0
KCL1 160815Z 00008KT 14/11 A3006 RMK A01 T01440114  RH  082%=      5-min Rain = 0
KCL1 160816Z 00008KT 15/12 A3006 RMK A01 T01450115  RH  082%=      5-min Rain = 0
KCL1 160817Z 00008KT 15/11 A3006 RMK A01 T01450114  RH  082%=      5-min Rain = 0
KCL1 160818Z 01008KT 15/12 A3006 RMK A01 T01450115  RH  082%=      5-min Rain = 0
KCL1 160819Z 01007KT 15/12 A3006 RMK A01 T01450115  RH  082%=      5-min Rain = 0
KCL1 160820Z 01007KT 14/11 A3007 RMK A01 T01440114  RH  082%=      5-min Rain = 0
KCL1 160821Z 01006KT 14/11 A3006 RMK A01 T01430114  RH  083%=      5-min Rain = 0
KCL1 160822Z 01007KT 14/11 A3006 RMK A01 T01420114  RH  083%=      5-min Rain = 0
KCL1 160823Z 02008KT 14/11 A3006 RMK A01 T01420114  RH  083%=      5-min Rain = 0
KCL1 160824Z 02007KT 14/11 A3006 RMK A01 T01420114  RH  083%=      5-min Rain = 0
KCL1 160825Z 02007KT 14/11 A3006 RMK A01 T01420114  RH  084%=      5-min Rain = 0
KCL1 160826Z 02007KT 14/11 A3006 RMK A01 T01400114  RH  084%=      5-min Rain = 0
KCL1 160827Z 02008KT 14/11 A3006 RMK A01 T01400114  RH  084%=      5-min Rain = 0
KCL1 160828Z 01008KT 14/11 A3006 RMK A01 T01390113  RH  084%=      5-min Rain = 0
KCL1 160829Z 02008KT 14/11 A3006 RMK A01 T01380113  RH  085%=      5-min Rain = 0
KCL1 160830Z 01008KT 14/11 A3006 RMK A01 T01380113  RH  085%=      5-min Rain = 0
KCL1 160831Z 02008KT 14/11 A3006 RMK A01 T01370113  RH  085%=      5-min Rain = 0
KCL1 160832Z 01008KT 14/11 A3006 RMK A01 T01370114  RH  086%=      5-min Rain = 0
KCL1 160833Z 01007KT 14/11 A3006 RMK A01 T01360114  RH  086%=      5-min Rain = 0
KCL1 160834Z 01006KT 14/11 A3006 RMK A01 T01360114  RH  087%=      5-min Rain = 0
KCL1 160835Z 01006KT 14/11 A3006 RMK A01 T01360114  RH  087%=      5-min Rain = 0
KCL1 160836Z 01007KT 14/12 A3006 RMK A01 T01360115  RH  087%=      5-min Rain = 0
KCL1 160837Z 01007KT 14/12 A3006 RMK A01 T01360115  RH  087%=      5-min Rain = 0
KCL1 160838Z 01007KT 14/12 A3006 RMK A01 T01360115  RH  087%=      5-min Rain = 0
KCL1 160839Z 01008KT 14/12 A3006 RMK A01 T01360115  RH  087%=      5-min Rain = 0
KCL1 160840Z 01008KT 14/12 A3006 RMK A01 T01360115  RH  087%=      5-min Rain = 0
KCL1 160841Z 01008KT 14/12 A3006 RMK A01 T01370115  RH  087%=      5-min Rain = 0
KCL1 160842Z 02008KT 14/12 A3006 RMK A01 T01370115  RH  087%=      5-min Rain = 0
KCL1 160843Z 02008KT 14/12 A3006 RMK A01 T01370115  RH  087%=      5-min Rain = 0
KCL1 160844Z 01009KT 14/12 A3006 RMK A01 T01360115  RH  087%=      5-min Rain = 0
KCL1 160845Z 01008KT 14/12 A3006 RMK A01 T01370116  RH  087%=      5-min Rain = 0
KCL1 160846Z 01008KT 14/12 A3006 RMK A01 T01370115  RH  087%=      5-min Rain = 0
KCL1 160847Z 01008KT 14/12 A3006 RMK A01 T01360115  RH  087%=      5-min Rain = 0
KCL1 160848Z 01008KT 14/12 A3006 RMK A01 T01360115  RH  087%=      5-min Rain = 0
KCL1 160849Z 01007KT 14/12 A3006 RMK A01 T01360115  RH  087%=      5-min Rain = 0
KCL1 160850Z 01008KT 14/12 A3006 RMK A01 T01360115  RH  087%=      5-min Rain = 0
KCL1 160851Z 01008KT 14/12 A3006 RMK A01 T01350115  RH  088%=      5-min Rain = 0
KCL1 160852Z 01008KT 14/12 A3006 RMK A01 T01360116  RH  088%=      5-min Rain = 0
KCL1 160853Z 01008KT 14/12 A3005 RMK A01 T01360117  RH  088%=      5-min Rain = 0
KCL1 160854Z 02008KT 14/12 A3005 RMK A01 T01370117  RH  088%=      5-min Rain = 0
KCL1 160855Z 02008KT 14/12 A3005 RMK A01 T01370116  RH  087%=      5-min Rain = 0
KCL1 160856Z 02008KT 14/12 A3005 RMK A01 T01370116  RH  087%=      5-min Rain = 0
KCL1 160857Z 03008KT 14/12 A3005 RMK A01 T01370116  RH  087%=      5-min Rain = 0
KCL1 160858Z 03008KT 14/12 A3005 RMK A01 T01360115  RH  087%=      5-min Rain = 0
KCL1 160859Z 03007KT 14/12 A3005 RMK A01 T01360116  RH  088%=      5-min Rain = 0
KCL1 160900Z 03008KT 14/12 A3005 RMK A01 T01360116  RH  088%=      5-min Rain = 0
KCL1 160901Z 02008KT 14/12 A3005 RMK A01 T01360116  RH  088%=      5-min Rain = 0
KCL1 160902Z 02008KT 14/12 A3005 RMK A01 T01350116  RH  088%=      5-min Rain = 0
KCL1 160903Z 03008KT 14/12 A3005 RMK A01 T01350116  RH  088%=      5-min Rain = 0
KCL1 160904Z 02008KT 13/12 A3005 RMK A01 T01340116  RH  088%=      5-min Rain = 0
KCL1 160905Z 02008KT 13/12 A3005 RMK A01 T01340116  RH  088%=      5-min Rain = 0
KCL1 160906Z 02009KT 13/12 A3005 RMK A01 T01340116  RH  089%=      5-min Rain = 0
KCL1 160907Z 03009KT 13/12 A3005 RMK A01 T01340115  RH  089%=      5-min Rain = 0
KCL1 160908Z 03009KT 13/12 A3005 RMK A01 T01330115  RH  089%=      5-min Rain = 0
KCL1 160909Z 03009KT 13/12 A3006 RMK A01 T01330115  RH  089%=      5-min Rain = 0
KCL1 160910Z 03009KT 13/12 A3006 RMK A01 T01330115  RH  089%=      5-min Rain = 0
KCL1 160911Z 03008KT 13/11 A3006 RMK A01 T01330114  RH  088%=      5-min Rain = 0
KCL1 160912Z 04009KT 13/11 A3006 RMK A01 T01330114  RH  088%=      5-min Rain = 0
KCL1 160913Z 04009KT 13/11 A3006 RMK A01 T01330114  RH  088%=      5-min Rain = 0
KCL1 160914Z 04009KT 13/11 A3006 RMK A01 T01330113  RH  088%=      5-min Rain = 0
KCL1 160915Z 04009KT 13/11 A3006 RMK A01 T01320112  RH  088%=      5-min Rain = 0
KCL1 160916Z 05008KT 13/11 A3005 RMK A01 T01320112  RH  088%=      5-min Rain = 0
KCL1 160917Z 05008KT 13/11 A3005 RMK A01 T01310111  RH  087%=      5-min Rain = 0
KCL1 160918Z 05007KT 13/11 A3005 RMK A01 T01300110  RH  087%=      5-min Rain = 0
KCL1 160919Z 05007KT 13/11 A3005 RMK A01 T01310110  RH  087%=      5-min Rain = 0
KCL1 160920Z 04007KT 13/11 A3005 RMK A01 T01310109  RH  086%=      5-min Rain = 0
KCL1 160921Z 04006KT 13/11 A3005 RMK A01 T01310108  RH  086%=      5-min Rain = 0
KCL1 160922Z 04006KT 13/11 A3005 RMK A01 T01310108  RH  086%=      5-min Rain = 0
KCL1 160923Z 04006KT 13/11 A3005 RMK A01 T01310108  RH  086%=      5-min Rain = 0
KCL1 160924Z 04007KT 13/11 A3005 RMK A01 T01310107  RH  085%=      5-min Rain = 0
KCL1 160925Z 03007KT 13/11 A3005 RMK A01 T01310107  RH  085%=      5-min Rain = 0
KCL1 160926Z 03007KT 13/11 A3005 RMK A01 T01310107  RH  085%=      5-min Rain = 0
KCL1 160927Z 03008KT 13/11 A3005 RMK A01 T01310106  RH  085%=      5-min Rain = 0
KCL1 160928Z 03008KT 13/11 A3005 RMK A01 T01310106  RH  085%=      5-min Rain = 0
KCL1 160929Z 03009KT 13/11 A3005 RMK A01 T01310106  RH  085%=      5-min Rain = 0
KCL1 160930Z 03009KT 13/11 A3005 RMK A01 T01310105  RH  084%=      5-min Rain = 0
KCL1 160931Z 03009KT 13/10 A3005 RMK A01 T01310104  RH  084%=      5-min Rain = 0
KCL1 160932Z 03010KT 13/10 A3005 RMK A01 T01310104  RH  084%=      5-min Rain = 0
KCL1 160933Z 03009KT 13/10 A3005 RMK A01 T01310104  RH  084%=      5-min Rain = 0
KCL1 160934Z 03010KT 13/10 A3006 RMK A01 T01310104  RH  084%=      5-min Rain = 0
KCL1 160935Z 03010KT 13/10 A3006 RMK A01 T01310104  RH  084%=      5-min Rain = 0
KCL1 160936Z 03009KT 13/11 A3006 RMK A01 T01300105  RH  085%=      5-min Rain = 0
KCL1 160937Z 03011KT 13/11 A3006 RMK A01 T01300105  RH  085%=      5-min Rain = 0
KCL1 160938Z 03010KT 13/11 A3006 RMK A01 T01310108  RH  086%=      5-min Rain = 0
KCL1 160939Z 03007KT 13/11 A3006 RMK A01 T01330110  RH  086%=      5-min Rain = 0
KCL1 160940Z 03009KT 13/11 A3006 RMK A01 T01340109  RH  085%=      5-min Rain = 0
KCL1 160941Z 03010KT 13/11 A3006 RMK A01 T01340111  RH  086%=      5-min Rain = 0
KCL1 160942Z 04009KT 14/11 A3006 RMK A01 T01360113  RH  086%=      5-min Rain = 0
KCL1 160943Z 04009KT 14/11 A3006 RMK A01 T01360113  RH  086%=      5-min Rain = 0
KCL1 160944Z 04009KT 14/11 A3006 RMK A01 T01370113  RH  086%=      5-min Rain = 0
KCL1 160945Z 04009KT 14/11 A3006 RMK A01 T01360114  RH  087%=      5-min Rain = 0
KCL1 160946Z 04009KT 14/12 A3006 RMK A01 T01360115  RH  087%=      5-min Rain = 0
KCL1 160947Z 04008KT 14/12 A3006 RMK A01 T01360115  RH  087%=      5-min Rain = 0
KCL1 160948Z 04008KT 14/12 A3006 RMK A01 T01360116  RH  088%=      5-min Rain = 0
KCL1 160949Z 04009KT 14/12 A3006 RMK A01 T01360118  RH  089%=      5-min Rain = 0
KCL1 160950Z 04009KT 14/12 A3006 RMK A01 T01360119  RH  089%=      5-min Rain = 0
KCL1 160951Z 04009KT 14/12 A3006 RMK A01 T01360119  RH  090%=      5-min Rain = 0
KCL1 160952Z 04009KT 14/12 A3006 RMK A01 T01360120  RH  090%=      5-min Rain = 0
KCL1 160953Z 04007KT 14/12 A3006 RMK A01 T01360121  RH  091%=      5-min Rain = 0
KCL1 160954Z 04007KT 14/12 A3006 RMK A01 T01360121  RH  091%=      5-min Rain = 0
KCL1 160955Z 04007KT 14/12 A3006 RMK A01 T01360122  RH  091%=      5-min Rain = 0
KCL1 160956Z 04007KT 14/12 A3006 RMK A01 T01360122  RH  091%=      5-min Rain = 0
KCL1 160957Z 05009KT 14/12 A3006 RMK A01 T01360122  RH  091%=      5-min Rain = 0
KCL1 160958Z 05008KT 14/12 A3006 RMK A01 T01360124  RH  093%=      5-min Rain = 0
KCL1 160959Z 05008KT 14/13 A3006 RMK A01 T01360127  RH  094%=      5-min Rain = 0
KCL1 161000Z 05009KT 14/13 A3006 RMK A01 T01380129  RH  094%=      5-min Rain = 0
KCL1 161001Z 06008KT 14/13 A3006 RMK A01 T01390132  RH  095%=      5-min Rain = 0
KCL1 161002Z 06007KT 14/13 A3006 RMK A01 T01400133  RH  095%=      5-min Rain = 0
KCL1 161003Z 06007KT 14/13 A3006 RMK A01 T01410133  RH  095%=      5-min Rain = 0
KCL1 161004Z 06007KT 14/13 A3006 RMK A01 T01410133  RH  095%=      5-min Rain = 0
KCL1 161005Z 06008KT 14/13 A3006 RMK A01 T01410133  RH  095%=      5-min Rain = 0
KCL1 161006Z 06009KT 14/13 A3006 RMK A01 T01410134  RH  095%=      5-min Rain = 0
KCL1 161007Z 06009KT 14/13 A3006 RMK A01 T01420134  RH  095%=      5-min Rain = 0
KCL1 161008Z 05009KT 14/13 A3006 RMK A01 T01420134  RH  095%=      5-min Rain = 0
KCL1 161009Z 06009KT 14/13 A3006 RMK A01 T01420134  RH  095%=      5-min Rain = 0
KCL1 161010Z 06009KT 14/13 A3006 RMK A01 T01410134  RH  095%=      5-min Rain = 0
KCL1 161011Z 06008KT 14/13 A3006 RMK A01 T01410134  RH  095%=      5-min Rain = 0
KCL1 161012Z 06008KT 14/13 A3005 RMK A01 T01410133  RH  095%=      5-min Rain = 0
KCL1 161013Z 06009KT 14/13 A3005 RMK A01 T01410134  RH  095%=      5-min Rain = 0
KCL1 161014Z 07008KT 14/13 A3005 RMK A01 T01410134  RH  096%=      5-min Rain = 0
KCL1 161015Z 07006KT 14/13 A3005 RMK A01 T01400133  RH  096%=      5-min Rain = 0
KCL1 161016Z 06005KT 14/13 A3006 RMK A01 T01390132  RH  095%=      5-min Rain = 0
KCL1 161017Z 06007KT 14/13 A3006 RMK A01 T01390131  RH  095%=      5-min Rain = 0
KCL1 161018Z 06007KT 14/13 A3006 RMK A01 T01380131  RH  096%=      5-min Rain = 0
KCL1 161019Z 06007KT 14/13 A3006 RMK A01 T01380131  RH  096%=      5-min Rain = 0
KCL1 161020Z 06007KT 14/13 A3005 RMK A01 T01380131  RH  096%=      5-min Rain = 0
KCL1 161021Z 06007KT 14/13 A3005 RMK A01 T01380132  RH  096%=      5-min Rain = 0
KCL1 161022Z 06007KT 14/13 A3005 RMK A01 T01370132  RH  096%=      5-min Rain = 0
KCL1 161023Z 06007KT 14/13 A3005 RMK A01 T01370132  RH  096%=      5-min Rain = 0
KCL1 161024Z 06008KT 14/13 A3005 RMK A01 T01370131  RH  096%=      5-min Rain = 0
KCL1 161025Z 06006KT 14/13 A3005 RMK A01 T01360131  RH  096%=      5-min Rain = 0
KCL1 161026Z 06006KT 14/13 A3005 RMK A01 T01360130  RH  096%=      5-min Rain = 0
KCL1 161027Z 06007KT 14/13 A3005 RMK A01 T01350130  RH  096%=      5-min Rain = 0
KCL1 161028Z 06007KT 14/13 A3005 RMK A01 T01350129  RH  096%=      5-min Rain = 0
KCL1 161029Z 06007KT 13/13 A3005 RMK A01 T01340129  RH  096%=      5-min Rain = 0
KCL1 161030Z 07006KT 13/13 A3005 RMK A01 T01340129  RH  097%=      5-min Rain = 0
KCL1 161031Z 08005KT 13/13 A3005 RMK A01 T01340129  RH  097%=      5-min Rain = 0
KCL1 161032Z 09005KT 13/13 A3005 RMK A01 T01340129  RH  097%=      5-min Rain = 0
KCL1 161033Z 10005KT 13/13 A3005 RMK A01 T01330128  RH  097%=      5-min Rain = 0
KCL1 161034Z 09006KT 13/13 A3005 RMK A01 T01330128  RH  097%=      5-min Rain = 0
KCL1 161035Z 08006KT 13/13 A3005 RMK A01 T01330129  RH  097%=      5-min Rain = 0
KCL1 161036Z 08006KT 13/13 A3005 RMK A01 T01330130  RH  098%=      5-min Rain = 0
KCL1 161037Z 08006KT 13/13 A3005 RMK A01 T01330130  RH  098%=      5-min Rain = 0
KCL1 161038Z 08005KT 13/13 A3005 RMK A01 T01330131  RH  098%=      5-min Rain = 0
KCL1 161039Z 08005KT 13/13 A3005 RMK A01 T01330131  RH  098%=      5-min Rain = 0
KCL1 161040Z 09005KT 13/13 A3005 RMK A01 T01340132  RH  099%=      5-min Rain = 0
KCL1 161041Z 09005KT 13/13 A3005 RMK A01 T01330132  RH  099%=      5-min Rain = 0
KCL1 161042Z 09005KT 13/13 A3005 RMK A01 T01330132  RH  099%=      5-min Rain = 0
KCL1 161043Z 09005KT 13/13 A3005 RMK A01 T01330132  RH  099%=      5-min Rain = 0
KCL1 161044Z 08005KT 13/13 A3005 RMK A01 T01330132  RH  100%=      5-min Rain = 0
KCL1 161045Z 08005KT 13/13 A3005 RMK A01 T01320132  RH  100%=      5-min Rain = 0
KCL1 161046Z 07005KT 13/13 A3005 RMK A01 T01320132  RH  100%=      5-min Rain = 0
KCL1 161047Z 07005KT 13/13 A3005 RMK A01 T01330133  RH  100%=      5-min Rain = 0
KCL1 161048Z 08005KT 13/13 A3005 RMK A01 T01320132  RH  100%=      5-min Rain = 0
KCL1 161049Z 08005KT 13/13 A3005 RMK A01 T01320132  RH  100%=      5-min Rain = 0
KCL1 161050Z 08005KT 13/13 A3005 RMK A01 T01310131  RH  100%=      5-min Rain = 0
KCL1 161051Z 08005KT 13/13 A3005 RMK A01 T01300130  RH  100%=      5-min Rain = 0
KCL1 161052Z 08005KT 13/13 A3005 RMK A01 T01300130  RH  100%=      5-min Rain = 0
KCL1 161053Z 10006KT 13/13 A3005 RMK A01 T01300130  RH  100%=      5-min Rain = 0
KCL1 161054Z 10006KT 13/13 A3005 RMK A01 T01300130  RH  100%=      5-min Rain = 0
KCL1 161055Z 10005KT 13/13 A3005 RMK A01 T01290129  RH  100%=      5-min Rain = 0
KCL1 161056Z 09005KT 13/13 A3005 RMK A01 T01290129  RH  100%=      5-min Rain = 0
KCL1 161057Z 09005KT 13/13 A3005 RMK A01 T01290129  RH  100%=      5-min Rain = 0
KCL1 161058Z 09005KT 13/13 A3005 RMK A01 T01290129  RH  100%=      5-min Rain = 0
KCL1 161059Z 08006KT 13/13 A3005 RMK A01 T01280128  RH  100%=      5-min Rain = 0
KCL1 161100Z 08006KT 13/13 A3005 RMK A01 T01280128  RH  100%=      5-min Rain = 0
KCL1 161101Z 08006KT 13/13 A3005 RMK A01 T01280128  RH  100%=      5-min Rain = 0
KCL1 161102Z 09006KT 13/13 A3005 RMK A01 T01280128  RH  100%=      5-min Rain = 0
KCL1 161103Z 09006KT 13/13 A3005 RMK A01 T01280128  RH  100%=      5-min Rain = 0
KCL1 161104Z 08007KT 13/13 A3005 RMK A01 T01280128  RH  100%=      5-min Rain = 0
KCL1 161105Z 08007KT 13/13 A3005 RMK A01 T01280128  RH  100%=      5-min Rain = 0
KCL1 161106Z 08007KT 13/13 A3005 RMK A01 T01280128  RH  100%=      5-min Rain = 0
KCL1 161107Z 06007KT 13/13 A3006 RMK A01 T01280128  RH  100%=      5-min Rain = 0
KCL1 161108Z 06007KT 13/13 A3005 RMK A01 T01280128  RH  100%=      5-min Rain = 0
KCL1 161109Z 07005KT 13/13 A3005 RMK A01 T01280128  RH  100%=      5-min Rain = 0
KCL1 161110Z 08005KT 13/13 A3005 RMK A01 T01280128  RH  100%=      5-min Rain = 0
KCL1 161111Z 08005KT 13/13 A3005 RMK A01 T01280128  RH  100%=      5-min Rain = 0
KCL1 161112Z 08005KT 13/13 A3005 RMK A01 T01280128  RH  100%=      5-min Rain = 0
KCL1 161113Z 08006KT 13/13 A3005 RMK A01 T01270127  RH  100%=      5-min Rain = 0
KCL1 161114Z 08006KT 13/13 A3005 RMK A01 T01270127  RH  100%=      5-min Rain = 0
KCL1 161115Z 09007KT 13/13 A3005 RMK A01 T01270127  RH  100%=      5-min Rain = 0
KCL1 161116Z 08007KT 13/13 A3005 RMK A01 T01260127  RH  100%=      5-min Rain = 0
KCL1 161117Z 07006KT 13/13 A3005 RMK A01 T01270127  RH  100%=      5-min Rain = 0
KCL1 161118Z 07005KT 13/13 A3005 RMK A01 T01260127  RH  100%=      5-min Rain = 0
KCL1 161119Z 09004KT 13/13 A3005 RMK A01 T01270127  RH  100%=      5-min Rain = 0
KCL1 161120Z 10004KT 13/13 A3005 RMK A01 T01260127  RH  100%=      5-min Rain = 0
KCL1 161121Z 10005KT 13/13 A3005 RMK A01 T01270127  RH  100%=      5-min Rain = 0
KCL1 161122Z 09005KT 13/13 A3005 RMK A01 T01270127  RH  100%=      5-min Rain = 0
KCL1 161123Z 08005KT 13/13 A3005 RMK A01 T01280128  RH  100%=      5-min Rain = 0
KCL1 161124Z 07005KT 13/13 A3005 RMK A01 T01280128  RH  100%=      5-min Rain = 0
KCL1 161125Z 06005KT 13/13 A3005 RMK A01 T01290129  RH  100%=      5-min Rain = 0
KCL1 161126Z 07005KT 13/13 A3005 RMK A01 T01290129  RH  100%=      5-min Rain = 0
KCL1 161127Z 07006KT 13/13 A3005 RMK A01 T01290129  RH  100%=      5-min Rain = 0
KCL1 161128Z 06006KT 13/13 A3005 RMK A01 T01280128  RH  100%=      5-min Rain = 0
KCL1 161129Z 06007KT 13/13 A3004 RMK A01 T01270127  RH  100%=      5-min Rain = 0
KCL1 161130Z 05007KT 13/13 A3004 RMK A01 T01270128  RH  100%=      5-min Rain = 0
KCL1 161131Z 05007KT 13/13 A3004 RMK A01 T01270127  RH  100%=      5-min Rain = 0
KCL1 161132Z 05007KT 13/13 A3004 RMK A01 T01270127  RH  100%=      5-min Rain = 0
KCL1 161133Z 05007KT 13/13 A3004 RMK A01 T01270127  RH  100%=      5-min Rain = 0
KCL1 161134Z 04007KT 13/13 A3004 RMK A01 T01270127  RH  100%=      5-min Rain = 0
KCL1 161135Z 04007KT 13/13 A3004 RMK A01 T01270127  RH  100%=      5-min Rain = 0
KCL1 161136Z 05007KT 13/13 A3004 RMK A01 T01270127  RH  100%=      5-min Rain = 0
KCL1 161137Z 05007KT 13/13 A3004 RMK A01 T01270127  RH  100%=      5-min Rain = 0
KCL1 161138Z 05007KT 13/13 A3005 RMK A01 T01270127  RH  100%=      5-min Rain = 0
KCL1 161139Z 05007KT 13/13 A3005 RMK A01 T01270127  RH  100%=      5-min Rain = 0
KCL1 161140Z 05006KT 13/13 A3005 RMK A01 T01270127  RH  100%=      5-min Rain = 0
KCL1 161141Z 06007KT 13/13 A3005 RMK A01 T01270127  RH  100%=      5-min Rain = 0
KCL1 161142Z 06006KT 13/13 A3005 RMK A01 T01270127  RH  100%=      5-min Rain = 0
KCL1 161143Z 06006KT 13/13 A3005 RMK A01 T01260126  RH  100%=      5-min Rain = 0
KCL1 161144Z 06006KT 13/13 A3005 RMK A01 T01260126  RH  100%=      5-min Rain = 0
KCL1 161145Z 06006KT 13/13 A3005 RMK A01 T01260126  RH  100%=      5-min Rain = 0
KCL1 161146Z 05006KT 13/13 A3005 RMK A01 T01260126  RH  100%=      5-min Rain = 0
KCL1 161147Z 06006KT 13/13 A3005 RMK A01 T01290129  RH  100%=      5-min Rain = 0
KCL1 161148Z 06005KT 13/13 A3005 RMK A01 T01310131  RH  100%=      5-min Rain = 0
KCL1 161149Z 06006KT 13/13 A3005 RMK A01 T01310131  RH  100%=      5-min Rain = 0
KCL1 161150Z 06006KT 13/13 A3005 RMK A01 T01300130  RH  100%=      5-min Rain = 0
KCL1 161151Z 06006KT 13/13 A3005 RMK A01 T01290129  RH  100%=      5-min Rain = 0
KCL1 161152Z 06006KT 13/13 A3005 RMK A01 T01280128  RH  100%=      5-min Rain = 0
KCL1 161153Z 06005KT 13/13 A3005 RMK A01 T01290129  RH  100%=      5-min Rain = 0
KCL1 161154Z 06005KT 13/13 A3005 RMK A01 T01300130  RH  100%=      5-min Rain = 0
KCL1 161155Z 07006KT 13/13 A3005 RMK A01 T01300130  RH  100%=      5-min Rain = 0
KCL1 161156Z 07006KT 13/13 A3006 RMK A01 T01290129  RH  100%=      5-min Rain = 0
KCL1 161157Z 07005KT 13/13 A3006 RMK A01 T01270127  RH  100%=      5-min Rain = 0
KCL1 161158Z 07005KT 13/13 A3006 RMK A01 T01260126  RH  100%=      5-min Rain = 0
KCL1 161159Z 07005KT 13/13 A3006 RMK A01 T01260126  RH  100%=      5-min Rain = 0
KCL1 161200Z 08005KT 13/13 A3006 RMK A01 T01260126  RH  100%=      5-min Rain = 0
KCL1 161201Z 08004KT 13/13 A3006 RMK A01 T01260126  RH  100%=      5-min Rain = 0
KCL1 161202Z 08004KT 13/13 A3006 RMK A01 T01270127  RH  100%=      5-min Rain = 0
KCL1 161203Z 08003KT 13/13 A3006 RMK A01 T01280128  RH  100%=      5-min Rain = 0
KCL1 161204Z 06001KT 13/13 A3006 RMK A01 T01270127  RH  100%=      5-min Rain = 0
KCL1 161205Z 20002KT 13/13 A3006 RMK A01 T01270128  RH  100%=      5-min Rain = 0
KCL1 161206Z 18000KT 13/13 A3007 RMK A01 T01270127  RH  100%=      5-min Rain = 0
KCL1 161207Z 17000KT 13/13 A3007 RMK A01 T01280128  RH  100%=      5-min Rain = 0
KCL1 161208Z 21000KT 13/13 A3007 RMK A01 T01290129  RH  100%=      5-min Rain = 0
KCL1 161209Z 21000KT 13/13 A3007 RMK A01 T01290129  RH  100%=      5-min Rain = 0
KCL1 161210Z 20002KT 13/13 A3007 RMK A01 T01290129  RH  100%=      5-min Rain = 0
KCL1 161211Z 21001KT 13/13 A3007 RMK A01 T01290129  RH  100%=      5-min Rain = 0
KCL1 161212Z 16001KT 13/13 A3007 RMK A01 T01300130  RH  100%=      5-min Rain = 0
KCL1 161213Z 16001KT 13/13 A3007 RMK A01 T01300130  RH  100%=      5-min Rain = 0
KCL1 161214Z 19002KT 13/13 A3007 RMK A01 T01310131  RH  100%=      5-min Rain = 0
KCL1 161215Z 20003KT 13/13 A3008 RMK A01 T01310131  RH  100%=      5-min Rain = 0
KCL1 161216Z 21004KT 13/13 A3008 RMK A01 T01310131  RH  100%=      5-min Rain = 0
KCL1 161217Z 22004KT 13/13 A3008 RMK A01 T01320132  RH  100%=      5-min Rain = 0
KCL1 161218Z 22004KT 13/13 A3008 RMK A01 T01330133  RH  100%=      5-min Rain = 0
KCL1 161219Z 22004KT 13/13 A3008 RMK A01 T01340134  RH  100%=      5-min Rain = 0
KCL1 161220Z 21004KT 14/14 A3008 RMK A01 T01360136  RH  100%=      5-min Rain = 0
KCL1 161221Z 21004KT 14/14 A3008 RMK A01 T01360137  RH  100%=      5-min Rain = 0
KCL1 161222Z 22004KT 14/14 A3008 RMK A01 T01370137  RH  100%=      5-min Rain = 0
KCL1 161223Z 23004KT 14/14 A3008 RMK A01 T01380138  RH  100%=      5-min Rain = 0
KCL1 161224Z 22004KT 14/14 A3008 RMK A01 T01380138  RH  100%=      5-min Rain = 0
KCL1 161225Z 23004KT 14/14 A3008 RMK A01 T01390139  RH  100%=      5-min Rain = 0
KCL1 161226Z 24003KT 14/14 A3008 RMK A01 T01390139  RH  100%=      5-min Rain = 0
KCL1 161227Z 24002KT 14/14 A3008 RMK A01 T01400140  RH  100%=      5-min Rain = 0
KCL1 161228Z 23001KT 14/14 A3008 RMK A01 T01400140  RH  100%=      5-min Rain = 0
KCL1 161229Z 22001KT 14/14 A3008 RMK A01 T01410141  RH  100%=      5-min Rain = 0
KCL1 161230Z 20001KT 14/14 A3008 RMK A01 T01410141  RH  100%=      5-min Rain = 0
KCL1 161231Z 20002KT 14/14 A3008 RMK A01 T01410141  RH  100%=      5-min Rain = 0
KCL1 161232Z 20003KT 14/14 A3008 RMK A01 T01420142  RH  100%=      5-min Rain = 0
KCL1 161233Z 20003KT 14/14 A3008 RMK A01 T01420142  RH  100%=      5-min Rain = 0
KCL1 161234Z 20003KT 14/14 A3008 RMK A01 T01420143  RH  100%=      5-min Rain = 0
KCL1 161235Z 20003KT 14/14 A3009 RMK A01 T01430143  RH  100%=      5-min Rain = 0
KCL1 161236Z 21003KT 14/14 A3009 RMK A01 T01440144  RH  100%=      5-min Rain = 0
KCL1 161237Z 22003KT 14/14 A3009 RMK A01 T01440144  RH  100%=      5-min Rain = 0
KCL1 161238Z 23003KT 15/15 A3009 RMK A01 T01450145  RH  100%=      5-min Rain = 0
KCL1 161239Z 23003KT 15/15 A3009 RMK A01 T01450145  RH  100%=      5-min Rain = 0
KCL1 161240Z 24002KT 15/15 A3009 RMK A01 T01460146  RH  100%=      5-min Rain = 0
KCL1 161241Z 22002KT 15/15 A3009 RMK A01 T01470147  RH  100%=      5-min Rain = 0
KCL1 161242Z 22002KT 15/15 A3009 RMK A01 T01470147  RH  100%=      5-min Rain = 0
KCL1 161243Z 22002KT 15/15 A3009 RMK A01 T01470147  RH  100%=      5-min Rain = 0
KCL1 161244Z 22003KT 15/15 A3009 RMK A01 T01470147  RH  100%=      5-min Rain = 0
KCL1 161245Z 23003KT 15/15 A3009 RMK A01 T01470147  RH  100%=      5-min Rain = 0
KCL1 161246Z 23002KT 15/15 A3009 RMK A01 T01480148  RH  100%=      5-min Rain = 0
KCL1 161247Z 23002KT 15/15 A3009 RMK A01 T01480148  RH  100%=      5-min Rain = 0
KCL1 161248Z 23002KT 15/15 A3009 RMK A01 T01490149  RH  100%=      5-min Rain = 0
KCL1 161249Z 24003KT 15/15 A3009 RMK A01 T01490149  RH  100%=      5-min Rain = 0
KCL1 161250Z 25002KT 15/15 A3008 RMK A01 T01490149  RH  100%=      5-min Rain = 0
KCL1 161251Z 26002KT 15/15 A3008 RMK A01 T01490149  RH  100%=      5-min Rain = 0
KCL1 161252Z 25002KT 15/15 A3008 RMK A01 T01490150  RH  100%=      5-min Rain = 0
KCL1 161253Z 25002KT 15/15 A3008 RMK A01 T01490150  RH  100%=      5-min Rain = 0
KCL1 161254Z 24002KT 15/15 A3008 RMK A01 T01490149  RH  100%=      5-min Rain = 0
KCL1 161255Z 24003KT 15/15 A3008 RMK A01 T01490149  RH  100%=      5-min Rain = 0
KCL1 161256Z 25003KT 15/15 A3008 RMK A01 T01490149  RH  100%=      5-min Rain = 0
KCL1 161257Z 24004KT 15/15 A3008 RMK A01 T01490149  RH  100%=      5-min Rain = 0
KCL1 161258Z 24004KT 15/15 A3008 RMK A01 T01490149  RH  100%=      5-min Rain = 0
KCL1 161259Z 25004KT 15/15 A3008 RMK A01 T01480148  RH  100%=      5-min Rain = 0
KCL1 161300Z 25003KT 15/15 A3008 RMK A01 T01480148  RH  100%=      5-min Rain = 0
KCL1 161301Z 24003KT 15/15 A3008 RMK A01 T01480148  RH  100%=      5-min Rain = 0
KCL1 161302Z 25003KT 15/15 A3008 RMK A01 T01480147  RH  100%=      5-min Rain = 0
KCL1 161303Z 25003KT 15/15 A3008 RMK A01 T01480148  RH  099%=      5-min Rain = 0
KCL1 161304Z 25003KT 15/15 A3008 RMK A01 T01480147  RH  099%=      5-min Rain = 0
KCL1 161305Z 25003KT 15/15 A3008 RMK A01 T01480147  RH  099%=      5-min Rain = 0
KCL1 161306Z 25002KT 15/15 A3008 RMK A01 T01480147  RH  099%=      5-min Rain = 0
KCL1 161307Z 24002KT 15/15 A3008 RMK A01 T01480146  RH  099%=      5-min Rain = 0
KCL1 161308Z 25002KT 15/15 A3008 RMK A01 T01480146  RH  098%=      5-min Rain = 0
KCL1 161309Z 25002KT 15/15 A3008 RMK A01 T01480145  RH  098%=      5-min Rain = 0
KCL1 161310Z 24002KT 15/15 A3008 RMK A01 T01490145  RH  098%=      5-min Rain = 0
KCL1 161311Z 24002KT 15/15 A3008 RMK A01 T01500145  RH  097%=      5-min Rain = 0
KCL1 161312Z 23002KT 15/15 A3008 RMK A01 T01500145  RH  097%=      5-min Rain = 0
KCL1 161313Z 23002KT 15/15 A3008 RMK A01 T01510145  RH  096%=      5-min Rain = 0
KCL1 161314Z 23002KT 15/15 A3008 RMK A01 T01510146  RH  096%=      5-min Rain = 0
KCL1 161315Z 21002KT 15/15 A3008 RMK A01 T01510146  RH  097%=      5-min Rain = 0
KCL1 161316Z 22002KT 15/15 A3009 RMK A01 T01510145  RH  096%=      5-min Rain = 0
KCL1 161317Z 23002KT 15/15 A3009 RMK A01 T01520145  RH  096%=      5-min Rain = 0
KCL1 161318Z 24002KT 15/15 A3009 RMK A01 T01530145  RH  095%=      5-min Rain = 0
KCL1 161319Z 25002KT 15/15 A3009 RMK A01 T01540145  RH  094%=      5-min Rain = 0
KCL1 161320Z 25002KT 16/15 A3009 RMK A01 T01560146  RH  094%=      5-min Rain = 0
KCL1 161321Z 25002KT 16/15 A3009 RMK A01 T01590147  RH  093%=      5-min Rain = 0
KCL1 161322Z 23001KT 16/15 A3009 RMK A01 T01600146  RH  092%=      5-min Rain = 0
KCL1 161323Z 21002KT 16/14 A3009 RMK A01 T01610142  RH  089%=      5-min Rain = 0
KCL1 161324Z 20002KT 16/14 A3009 RMK A01 T01640140  RH  086%=      5-min Rain = 0
KCL1 161325Z 19002KT 17/14 A3009 RMK A01 T01660138  RH  083%=      5-min Rain = 0
KCL1 161326Z 19003KT 17/14 A3009 RMK A01 T01690136  RH  081%=      5-min Rain = 0
KCL1 161327Z 20003KT 17/14 A3009 RMK A01 T01720137  RH  080%=      5-min Rain = 0
KCL1 161328Z 20002KT 17/14 A3009 RMK A01 T01740140  RH  081%=      5-min Rain = 0
KCL1 161329Z 19002KT 18/14 A3009 RMK A01 T01760137  RH  078%=      5-min Rain = 0
KCL1 161330Z 20002KT 18/14 A3009 RMK A01 T01780139  RH  078%=      5-min Rain = 0
KCL1 161331Z 19002KT 18/14 A3009 RMK A01 T01800139  RH  077%=      5-min Rain = 0
KCL1 161332Z 17002KT 18/14 A3009 RMK A01 T01820135  RH  074%=      5-min Rain = 0
KCL1 161333Z 17001KT 18/14 A3009 RMK A01 T01840140  RH  075%=      5-min Rain = 0
KCL1 161334Z 17003KT 19/14 A3009 RMK A01 T01850140  RH  075%=      5-min Rain = 0
KCL1 161335Z 17003KT 19/13 A3009 RMK A01 T01870133  RH  071%=      5-min Rain = 0
KCL1 161336Z 17002KT 19/13 A3009 RMK A01 T01890133  RH  070%=      5-min Rain = 0
KCL1 161337Z 17002KT 19/13 A3009 RMK A01 T01900134  RH  070%=      5-min Rain = 0
KCL1 161338Z 16002KT 19/14 A3009 RMK A01 T01910135  RH  070%=      5-min Rain = 0
KCL1 161339Z 16002KT 19/14 A301 RMK A01 T01930135  RH  069%=      5-min Rain = 0
KCL1 161340Z 17002KT 19/13 A301 RMK A01 T01940134  RH  068%=      5-min Rain = 0
KCL1 161341Z 16003KT 20/13 A301 RMK A01 T01960132  RH  066%=      5-min Rain = 0
KCL1 161342Z 17003KT 20/13 A301 RMK A01 T01960129  RH  065%=      5-min Rain = 0
KCL1 161343Z 18003KT 20/13 A301 RMK A01 T01970130  RH  065%=      5-min Rain = 0
KCL1 161344Z 18004KT 20/13 A301 RMK A01 T01980126  RH  063%=      5-min Rain = 0
KCL1 161345Z 18004KT 20/13 A301 RMK A01 T01990125  RH  063%=      5-min Rain = 0
KCL1 161346Z 17005KT 20/12 A301 RMK A01 T01990124  RH  062%=      5-min Rain = 0
KCL1 161347Z 16005KT 20/12 A301 RMK A01 T01990122  RH  061%=      5-min Rain = 0
KCL1 161348Z 16005KT 20/12 A301 RMK A01 T01980123  RH  062%=      5-min Rain = 0
KCL1 161349Z 17004KT 20/12 A301 RMK A01 T01980124  RH  062%=      5-min Rain = 0
KCL1 161350Z 17004KT 20/13 A301 RMK A01 T01980126  RH  063%=      5-min Rain = 0
KCL1 161351Z 17006KT 20/13 A301 RMK A01 T01970126  RH  064%=      5-min Rain = 0
KCL1 161352Z 17006KT 20/12 A301 RMK A01 T01960124  RH  063%=      5-min Rain = 0
KCL1 161353Z 17006KT 20/12 A301 RMK A01 T01950122  RH  062%=      5-min Rain = 0
KCL1 161354Z 16006KT 19/12 A301 RMK A01 T01930121  RH  063%=      5-min Rain = 0
KCL1 161355Z 16005KT 19/12 A301 RMK A01 T01920123  RH  064%=      5-min Rain = 0
KCL1 161356Z 17005KT 19/12 A301 RMK A01 T01910124  RH  065%=      5-min Rain = 0
KCL1 161357Z 16006KT 19/12 A301 RMK A01 T01900124  RH  065%=      5-min Rain = 0
KCL1 161358Z 15004KT 19/12 A301 RMK A01 T01890124  RH  066%=      5-min Rain = 0
KCL1 161359Z 15003KT 19/13 A301 RMK A01 T01890125  RH  067%=      5-min Rain = 0
KCL1 161400Z 15005KT 19/13 A301 RMK A01 T01880126  RH  067%=      5-min Rain = 0
KCL1 161401Z 16005KT 19/13 A301 RMK A01 T01880126  RH  067%=      5-min Rain = 0
KCL1 161402Z 15005KT 19/13 A301 RMK A01 T01870127  RH  068%=      5-min Rain = 0
KCL1 161403Z 15004KT 19/13 A301 RMK A01 T01870128  RH  068%=      5-min Rain = 0
KCL1 161404Z 15004KT 19/13 A301 RMK A01 T01870129  RH  069%=      5-min Rain = 0
KCL1 161405Z 14004KT 19/13 A301 RMK A01 T01860129  RH  069%=      5-min Rain = 0
KCL1 161406Z 15004KT 19/13 A301 RMK A01 T01870129  RH  069%=      5-min Rain = 0
KCL1 161407Z 15005KT 19/13 A301 RMK A01 T01880130  RH  069%=      5-min Rain = 0
KCL1 161408Z 16005KT 19/13 A301 RMK A01 T01890130  RH  068%=      5-min Rain = 0
KCL1 161409Z 16005KT 19/13 A301 RMK A01 T01910132  RH  069%=      5-min Rain = 0
KCL1 161410Z 16005KT 19/13 A301 RMK A01 T01930133  RH  068%=      5-min Rain = 0
KCL1 161411Z 16005KT 19/13 A301 RMK A01 T01940134  RH  068%=      5-min Rain = 0
KCL1 161412Z 16006KT 20/13 A301 RMK A01 T01950132  RH  067%=      5-min Rain = 0
KCL1 161413Z 16005KT 20/13 A301 RMK A01 T01950133  RH  067%=      5-min Rain = 0
KCL1 161414Z 16006KT 20/13 A301 RMK A01 T01960132  RH  067%=      5-min Rain = 0
KCL1 161415Z 17006KT 20/13 A301 RMK A01 T01960131  RH  066%=      5-min Rain = 0
KCL1 161416Z 16005KT 20/13 A301 RMK A01 T01960131  RH  066%=      5-min Rain = 0
KCL1 161417Z 16005KT 20/13 A301 RMK A01 T01970130  RH  065%=      5-min Rain = 0
KCL1 161418Z 17005KT 20/13 A301 RMK A01 T01990132  RH  065%=      5-min Rain = 0
KCL1 161419Z 17006KT 20/13 A301 RMK A01 T02010132  RH  064%=      5-min Rain = 0
KCL1 161420Z 17006KT 20/13 A301 RMK A01 T02010130  RH  064%=      5-min Rain = 0
KCL1 161421Z 17007KT 20/13 A301 RMK A01 T02020130  RH  064%=      5-min Rain = 0
KCL1 161422Z 16007KT 20/13 A301 RMK A01 T02000129  RH  064%=      5-min Rain = 0
KCL1 161423Z 17007KT 20/13 A301 RMK A01 T01990130  RH  064%=      5-min Rain = 0
KCL1 161424Z 18006KT 20/13 A301 RMK A01 T01990128  RH  064%=      5-min Rain = 0
KCL1 161425Z 17007KT 20/13 A301 RMK A01 T01990127  RH  063%=      5-min Rain = 0
KCL1 161426Z 18007KT 20/13 A301 RMK A01 T01990126  RH  063%=      5-min Rain = 0
KCL1 161427Z 18007KT 20/12 A301 RMK A01 T01980124  RH  062%=      5-min Rain = 0
KCL1 161428Z 18008KT 20/12 A301 RMK A01 T01980122  RH  061%=      5-min Rain = 0
KCL1 161429Z 17008KT 20/12 A301 RMK A01 T01980121  RH  061%=      5-min Rain = 0
KCL1 161430Z 18007KT 20/12 A301 RMK A01 T01980121  RH  061%=      5-min Rain = 0
KCL1 161431Z 17007KT 20/12 A301 RMK A01 T02000123  RH  061%=      5-min Rain = 0
KCL1 161432Z 19006KT 20/12 A301 RMK A01 T02020123  RH  060%=      5-min Rain = 0
KCL1 161433Z 19007KT 20/12 A301 RMK A01 T02030122  RH  060%=      5-min Rain = 0
KCL1 161434Z 17006KT 20/12 A301 RMK A01 T02030123  RH  060%=      5-min Rain = 0
KCL1 161435Z 19007KT 20/12 A301 RMK A01 T02040123  RH  060%=      5-min Rain = 0
KCL1 161436Z 19007KT 20/12 A301 RMK A01 T02040122  RH  059%=      5-min Rain = 0
KCL1 161437Z 17007KT 20/12 A301 RMK A01 T02040122  RH  059%=      5-min Rain = 0
KCL1 161438Z 20005KT 20/12 A301 RMK A01 T02030123  RH  060%=      5-min Rain = 0
KCL1 161439Z 18007KT 20/12 A301 RMK A01 T02030123  RH  060%=      5-min Rain = 0
KCL1 161440Z 19007KT 20/12 A301 RMK A01 T02030124  RH  061%=      5-min Rain = 0
KCL1 161441Z 19007KT 20/13 A301 RMK A01 T02030125  RH  061%=      5-min Rain = 0
KCL1 161442Z 19006KT 20/13 A301 RMK A01 T02020125  RH  061%=      5-min Rain = 0
KCL1 161443Z 18007KT 20/13 A301 RMK A01 T02020127  RH  062%=      5-min Rain = 0
KCL1 161444Z 17006KT 20/13 A301 RMK A01 T02020128  RH  062%=      5-min Rain = 0
KCL1 161445Z 17006KT 20/13 A301 RMK A01 T02030129  RH  062%=      5-min Rain = 0
KCL1 161446Z 18007KT 20/13 A301 RMK A01 T02040129  RH  062%=      5-min Rain = 0
KCL1 161447Z 18009KT 20/13 A301 RMK A01 T02040129  RH  062%=      5-min Rain = 0
KCL1 161448Z 18008KT 20/13 A301 RMK A01 T02040128  RH  062%=      5-min Rain = 0
KCL1 161449Z 18007KT 20/13 A301 RMK A01 T02040129  RH  062%=      5-min Rain = 0
KCL1 161450Z 18006KT 20/13 A301 RMK A01 T02030130  RH  062%=      5-min Rain = 0
KCL1 161451Z 18005KT 20/13 A301 RMK A01 T02030130  RH  062%=      5-min Rain = 0
KCL1 161452Z 17008KT 20/13 A3011 RMK A01 T02040130  RH  062%=      5-min Rain = 0
KCL1 161453Z 17007KT 21/13 A3011 RMK A01 T02050128  RH  061%=      5-min Rain = 0
KCL1 161454Z 16008KT 20/13 A3011 RMK A01 T02040128  RH  062%=      5-min Rain = 0
KCL1 161455Z 16008KT 20/13 A3011 RMK A01 T02020127  RH  062%=      5-min Rain = 0
KCL1 161456Z 15006KT 20/13 A3011 RMK A01 T02000127  RH  063%=      5-min Rain = 0
KCL1 161457Z 15007KT 20/13 A3011 RMK A01 T01990127  RH  063%=      5-min Rain = 0
KCL1 161458Z 15006KT 20/13 A3011 RMK A01 T01990127  RH  063%=      5-min Rain = 0
KCL1 161459Z 15007KT 20/13 A3011 RMK A01 T01980127  RH  064%=      5-min Rain = 0
KCL1 161500Z 14007KT 20/13 A3011 RMK A01 T01980126  RH  063%=      5-min Rain = 0
KCL1 161501Z 16006KT 20/13 A3011 RMK A01 T01970127  RH  064%=      5-min Rain = 0
KCL1 161502Z 15007KT 20/13 A3011 RMK A01 T01970126  RH  063%=      5-min Rain = 0
KCL1 161503Z 15006KT 20/13 A3011 RMK A01 T01970127  RH  064%=      5-min Rain = 0
KCL1 161504Z 14006KT 20/13 A3011 RMK A01 T01970126  RH  064%=      5-min Rain = 0
KCL1 161505Z 15007KT 20/13 A3011 RMK A01 T01970127  RH  064%=      5-min Rain = 0
KCL1 161506Z 16005KT 20/13 A3011 RMK A01 T01970126  RH  063%=      5-min Rain = 0
KCL1 161507Z 16006KT 20/13 A3011 RMK A01 T01970127  RH  064%=      5-min Rain = 0
KCL1 161508Z 16006KT 20/13 A3011 RMK A01 T01970126  RH  064%=      5-min Rain = 0
KCL1 161509Z 15005KT 20/13 A3011 RMK A01 T01980126  RH  063%=      5-min Rain = 0
KCL1 161510Z 14006KT 20/13 A3011 RMK A01 T01980127  RH  064%=      5-min Rain = 0
KCL1 161511Z 14007KT 20/13 A3011 RMK A01 T01980126  RH  063%=      5-min Rain = 0
KCL1 161512Z 14007KT 20/13 A3011 RMK A01 T01980127  RH  064%=      5-min Rain = 0
KCL1 161513Z 14007KT 20/13 A3011 RMK A01 T01980127  RH  064%=      5-min Rain = 0
KCL1 161514Z 14007KT 20/13 A3011 RMK A01 T01980127  RH  063%=      5-min Rain = 0
KCL1 161515Z 13005KT 20/13 A3011 RMK A01 T01980127  RH  064%=      5-min Rain = 0
KCL1 161516Z 15005KT 20/13 A3011 RMK A01 T01980128  RH  064%=      5-min Rain = 0
KCL1 161517Z 15006KT 20/13 A3012 RMK A01 T01980128  RH  064%=      5-min Rain = 0
KCL1 161518Z 14007KT 20/13 A3012 RMK A01 T01990127  RH  063%=      5-min Rain = 0
KCL1 161519Z 13007KT 20/13 A3012 RMK A01 T01990127  RH  063%=      5-min Rain = 0
KCL1 161520Z 13006KT 20/13 A3012 RMK A01 T01990127  RH  063%=      5-min Rain = 0
KCL1 161521Z 13007KT 20/13 A3012 RMK A01 T01980127  RH  063%=      5-min Rain = 0
KCL1 161522Z 12007KT 20/13 A3012 RMK A01 T01980126  RH  063%=      5-min Rain = 0
KCL1 161523Z 11008KT 20/13 A3012 RMK A01 T01980126  RH  063%=      5-min Rain = 0
KCL1 161524Z 11007KT 20/13 A3012 RMK A01 T01980126  RH  063%=      5-min Rain = 0
KCL1 161525Z 11007KT 20/13 A3012 RMK A01 T01980126  RH  063%=      5-min Rain = 0
KCL1 161526Z 11008KT 20/13 A3012 RMK A01 T01980127  RH  063%=      5-min Rain = 0
KCL1 161527Z 11010KT 20/13 A3012 RMK A01 T01980125  RH  063%=      5-min Rain = 0
KCL1 161528Z 12011KT 20/12 A3012 RMK A01 T01970124  RH  063%=      5-min Rain = 0
KCL1 161529Z 10008KT 20/13 A3012 RMK A01 T01970125  RH  063%=      5-min Rain = 0
KCL1 161530Z 10009KT 20/13 A3012 RMK A01 T01960126  RH  064%=      5-min Rain = 0
KCL1 161531Z 10009KT 20/13 A3012 RMK A01 T01960126  RH  064%=      5-min Rain = 0
KCL1 161532Z 11010KT 20/13 A3012 RMK A01 T01960126  RH  064%=      5-min Rain = 0
KCL1 161533Z 11008KT 20/13 A3012 RMK A01 T01950125  RH  064%=      5-min Rain = 0
KCL1 161534Z 10007KT 20/13 A3012 RMK A01 T01950125  RH  064%=      5-min Rain = 0
KCL1 161535Z 11007KT 20/13 A3012 RMK A01 T01950125  RH  064%=      5-min Rain = 0
KCL1 161536Z 11008KT 20/13 A3012 RMK A01 T01950125  RH  064%=      5-min Rain = 0
KCL1 161537Z 10010KT 20/13 A3012 RMK A01 T01960125  RH  064%=      5-min Rain = 0
KCL1 161538Z 10008KT 20/12 A3012 RMK A01 T01950124  RH  064%=      5-min Rain = 0
KCL1 161539Z 10008KT 20/12 A3012 RMK A01 T01950124  RH  064%=      5-min Rain = 0
KCL1 161540Z 11007KT 20/13 A3012 RMK A01 T01960125  RH  064%=      5-min Rain = 0
KCL1 161541Z 12008KT 20/13 A3012 RMK A01 T01970126  RH  064%=      5-min Rain = 0
KCL1 161542Z 12010KT 20/13 A3012 RMK A01 T01980127  RH  063%=      5-min Rain = 0
KCL1 161543Z 12009KT 20/13 A3012 RMK A01 T01990128  RH  063%=      5-min Rain = 0
KCL1 161544Z 11010KT 20/13 A3012 RMK A01 T02000128  RH  063%=      5-min Rain = 0
KCL1 161545Z 11009KT 20/13 A3012 RMK A01 T02010130  RH  064%=      5-min Rain = 0
KCL1 161546Z 11006KT 20/13 A3012 RMK A01 T02010131  RH  064%=      5-min Rain = 0
KCL1 161547Z 12008KT 20/13 A3012 RMK A01 T02020132  RH  064%=      5-min Rain = 0
KCL1 161548Z 11009KT 20/13 A3011 RMK A01 T02020132  RH  064%=      5-min Rain = 0
KCL1 161549Z 11008KT 20/13 A3011 RMK A01 T02020131  RH  064%=      5-min Rain = 0
KCL1 161550Z 12007KT 20/13 A3011 RMK A01 T02020133  RH  064%=      5-min Rain = 0
KCL1 161551Z 12008KT 20/13 A3011 RMK A01 T02040133  RH  064%=      5-min Rain = 0
KCL1 161552Z 13007KT 21/13 A3011 RMK A01 T02060134  RH  063%=      5-min Rain = 0
KCL1 161553Z 15006KT 21/13 A3011 RMK A01 T02080134  RH  062%=      5-min Rain = 0
KCL1 161554Z 15008KT 21/13 A3011 RMK A01 T02090133  RH  062%=      5-min Rain = 0
KCL1 161555Z 16007KT 21/13 A3011 RMK A01 T02110133  RH  061%=      5-min Rain = 0
KCL1 161556Z 14008KT 21/13 A301 RMK A01 T02130133  RH  060%=      5-min Rain = 0
KCL1 161557Z 14008KT 22/13 A301 RMK A01 T02150134  RH  060%=      5-min Rain = 0
KCL1 161558Z 15005KT 22/14 A301 RMK A01 T02170135  RH  060%=      5-min Rain = 0
KCL1 161559Z 16005KT 22/14 A301 RMK A01 T02180136  RH  060%=      5-min Rain = 0
KCL1 161600Z 19006KT 22/14 A301 RMK A01 T02210136  RH  059%=      5-min Rain = 0
KCL1 161601Z 18006KT 22/13 A301 RMK A01 T02220134  RH  058%=      5-min Rain = 0
KCL1 161602Z 17005KT 22/14 A301 RMK A01 T02210135  RH  058%=      5-min Rain = 0
KCL1 161603Z 19009KT 22/14 A301 RMK A01 T02220136  RH  058%=      5-min Rain = 0
KCL1 161604Z 19009KT 22/13 A301 RMK A01 T02230132  RH  056%=      5-min Rain = 0
KCL1 161605Z 18012KT 22/13 A301 RMK A01 T02220132  RH  057%=      5-min Rain = 0
KCL1 161606Z 18010KT 22/13 A301 RMK A01 T02210132  RH  057%=      5-min Rain = 0
KCL1 161607Z 18008KT 22/13 A3009 RMK A01 T02220133  RH  057%=      5-min Rain = 0
KCL1 161608Z 18006KT 22/13 A3009 RMK A01 T02220132  RH  057%=      5-min Rain = 0
KCL1 161609Z 18007KT 22/13 A3009 RMK A01 T02240134  RH  057%=      5-min Rain = 0
KCL1 161610Z 19010KT 23/13 A3009 RMK A01 T02250133  RH  056%=      5-min Rain = 0
KCL1 161611Z 19013KT 23/13 A3009 RMK A01 T02260133  RH  056%=      5-min Rain = 0
KCL1 161612Z 18012KT 23/13 A3009 RMK A01 T02260133  RH  056%=      5-min Rain = 0
KCL1 161613Z 18016KT 23/13 A3009 RMK A01 T02250132  RH  055%=      5-min Rain = 0
KCL1 161614Z 19012KT 22/13 A3009 RMK A01 T02230132  RH  056%=      5-min Rain = 0
KCL1 161615Z 17013KT 22/13 A3009 RMK A01 T02220132  RH  057%=      5-min Rain = 0
KCL1 161616Z 18011KT 22/13 A3009 RMK A01 T02220132  RH  057%=      5-min Rain = 0
KCL1 161617Z 20011G16KT 22/13 A3009 RMK A01 T02240133  RH  056%=      5-min Rain = 0
KCL1 161618Z 19012KT 23/13 A3009 RMK A01 T02260132  RH  055%=      5-min Rain = 0
KCL1 161619Z 19011KT 23/13 A3009 RMK A01 T02270134  RH  056%=      5-min Rain = 0
KCL1 161620Z 20007KT 23/13 A3009 RMK A01 T02270133  RH  055%=      5-min Rain = 0
KCL1 161621Z 19011KT 23/14 A3009 RMK A01 T02300135  RH  055%=      5-min Rain = 0
KCL1 161622Z 18012KT 23/13 A3009 RMK A01 T02310133  RH  054%=      5-min Rain = 0
KCL1 161623Z 19012KT 23/13 A3009 RMK A01 T02300134  RH  055%=      5-min Rain = 0
KCL1 161624Z 18011KT 23/13 A3009 RMK A01 T02300133  RH  055%=      5-min Rain = 0
KCL1 161625Z 18008G13KT 23/13 A3009 RMK A01 T02290134  RH  055%=      5-min Rain = 0
KCL1 161626Z 20007KT 23/14 A3009 RMK A01 T02300135  RH  055%=      5-min Rain = 0
KCL1 161627Z 19007KT 23/13 A3009 RMK A01 T02330134  RH  054%=      5-min Rain = 0
KCL1 161628Z 21011G16KT 23/13 A3009 RMK A01 T02330134  RH  054%=      5-min Rain = 0
KCL1 161629Z 20012G18KT 23/13 A3009 RMK A01 T02330134  RH  054%=      5-min Rain = 0
KCL1 161630Z 18012KT 23/13 A3009 RMK A01 T02310134  RH  054%=      5-min Rain = 0
KCL1 161631Z 20010KT 23/14 A3009 RMK A01 T02310135  RH  054%=      5-min Rain = 0
KCL1 161632Z 20010G15KT 23/14 A3009 RMK A01 T02320135  RH  054%=      5-min Rain = 0
KCL1 161633Z 18010G15KT 23/14 A3009 RMK A01 T02330135  RH  054%=      5-min Rain = 0
KCL1 161634Z 19007G16KT 24/14 A3009 RMK A01 T02350137  RH  054%=      5-min Rain = 0
KCL1 161635Z 20015G21KT 24/14 A3009 RMK A01 T02370137  RH  053%=      5-min Rain = 0
KCL1 161636Z 21016G22KT 23/14 A3009 RMK A01 T02330135  RH  054%=      5-min Rain = 0
KCL1 161637Z 22015G21KT 23/14 A3009 RMK A01 T02320136  RH  055%=      5-min Rain = 0
KCL1 161638Z 21014KT 23/14 A3009 RMK A01 T02310136  RH  055%=      5-min Rain = 0
KCL1 161639Z 21012KT 23/14 A3009 RMK A01 T02320136  RH  055%=      5-min Rain = 0
KCL1 161640Z 19013KT 23/14 A3009 RMK A01 T02330136  RH  054%=      5-min Rain = 0
KCL1 161641Z 20012KT 24/14 A3009 RMK A01 T02350138  RH  054%=      5-min Rain = 0
KCL1 161642Z 20012KT 24/14 A3009 RMK A01 T02400138  RH  053%=      5-min Rain = 0
KCL1 161643Z 20008KT 24/14 A3009 RMK A01 T02400139  RH  053%=      5-min Rain = 0
KCL1 161644Z 19012KT 24/14 A3009 RMK A01 T02410138  RH  053%=      5-min Rain = 0
KCL1 161645Z 20010KT 24/14 A3009 RMK A01 T02420139  RH  053%=      5-min Rain = 0
KCL1 161646Z 19011G16KT 24/14 A3009 RMK A01 T02440140  RH  052%=      5-min Rain = 0
KCL1 161647Z 17013KT 25/14 A3009 RMK A01 T02450141  RH  052%=      5-min Rain = 0
KCL1 161648Z 17013G19KT 24/14 A3009 RMK A01 T02440141  RH  053%=      5-min Rain = 0
KCL1 161649Z 17012KT 24/14 A3009 RMK A01 T02430141  RH  053%=      5-min Rain = 0
KCL1 161650Z 18012KT 24/14 A3009 RMK A01 T02420141  RH  053%=      5-min Rain = 0
KCL1 161651Z 19013KT 24/14 A3009 RMK A01 T02410141  RH  053%=      5-min Rain = 0
KCL1 161652Z 18012G17KT 24/14 A3009 RMK A01 T02410141  RH  053%=      5-min Rain = 0
KCL1 161653Z 18017KT 24/14 A3009 RMK A01 T02390141  RH  054%=      5-min Rain = 0
KCL1 161654Z 20011G18KT 24/14 A3009 RMK A01 T02370141  RH  055%=      5-min Rain = 0
KCL1 161655Z 21010KT 24/14 A3009 RMK A01 T02360141  RH  055%=      5-min Rain = 0
KCL1 161656Z 21012KT 24/14 A3009 RMK A01 T02350141  RH  055%=      5-min Rain = 0
KCL1 161657Z 20016KT 23/14 A3009 RMK A01 T02340141  RH  056%=      5-min Rain = 0
KCL1 161658Z 21012G18KT 23/14 A3009 RMK A01 T02340141  RH  056%=      5-min Rain = 0
KCL1 161659Z 22013KT 23/14 A3009 RMK A01 T02330141  RH  056%=      5-min Rain = 0
KCL1 161700Z 22014G19KT 23/14 A3009 RMK A01 T02330141  RH  056%=      5-min Rain = 0
KCL1 161701Z 19012KT 23/14 A3009 RMK A01 T02330141  RH  056%=      5-min Rain = 0
KCL1 161702Z 21013G22KT 23/14 A3009 RMK A01 T02330141  RH  056%=      5-min Rain = 0
KCL1 161703Z 21013G19KT 23/14 A3009 RMK A01 T02330141  RH  056%=      5-min Rain = 0
KCL1 161704Z 21013G20KT 23/14 A3009 RMK A01 T02320140  RH  056%=      5-min Rain = 0
KCL1 161705Z 20011KT 23/14 A3009 RMK A01 T02310139  RH  056%=      5-min Rain = 0
KCL1 161706Z 19012KT 23/14 A3009 RMK A01 T02320140  RH  056%=      5-min Rain = 0
KCL1 161707Z 19011KT 23/14 A3009 RMK A01 T02330141  RH  056%=      5-min Rain = 0
KCL1 161708Z 18015KT 23/14 A3009 RMK A01 T02330141  RH  056%=      5-min Rain = 0
KCL1 161709Z 19015KT 23/14 A3009 RMK A01 T02330141  RH  056%=      5-min Rain = 0
KCL1 161710Z 19012KT 23/14 A3009 RMK A01 T02330142  RH  056%=      5-min Rain = 0
KCL1 161711Z 19010KT 23/14 A3009 RMK A01 T02340143  RH  056%=      5-min Rain = 0
KCL1 161712Z 21011KT 24/14 A3009 RMK A01 T02360142  RH  056%=      5-min Rain = 0
KCL1 161713Z 19011KT 24/14 A3009 RMK A01 T02380143  RH  055%=      5-min Rain = 0
KCL1 161714Z 20013KT 24/14 A3009 RMK A01 T02390142  RH  055%=      5-min Rain = 0
KCL1 161715Z 18014KT 24/14 A3009 RMK A01 T02400142  RH  054%=      5-min Rain = 0
KCL1 161716Z 17013KT 24/14 A3009 RMK A01 T02390142  RH  055%=      5-min Rain = 0
KCL1 161717Z 15012KT 24/14 A3009 RMK A01 T02370142  RH  055%=      5-min Rain = 0
KCL1 161718Z 16009KT 24/14 A3009 RMK A01 T02360142  RH  056%=      5-min Rain = 0
KCL1 161719Z 16012KT 24/14 A3009 RMK A01 T02360143  RH  056%=      5-min Rain = 0
KCL1 161720Z 18013KT 24/14 A3009 RMK A01 T02370142  RH  055%=      5-min Rain = 0
KCL1 161721Z 19011KT 24/14 A3009 RMK A01 T02360142  RH  056%=      5-min Rain = 0
KCL1 161722Z 18012KT 24/14 A3009 RMK A01 T02360142  RH  056%=      5-min Rain = 0
KCL1 161723Z 18011KT 24/14 A3009 RMK A01 T02360142  RH  056%=      5-min Rain = 0
KCL1 161724Z 17013KT 24/14 A3009 RMK A01 T02360142  RH  055%=      5-min Rain = 0
KCL1 161725Z 19011G16KT 24/14 A3009 RMK A01 T02370142  RH  055%=      5-min Rain = 0
KCL1 161726Z 19011G16KT 24/14 A3009 RMK A01 T02390141  RH  054%=      5-min Rain = 0
KCL1 161727Z 18011G16KT 24/14 A3009 RMK A01 T02380141  RH  054%=      5-min Rain = 0
KCL1 161728Z 17012KT 24/14 A3009 RMK A01 T02390141  RH  054%=      5-min Rain = 0
KCL1 161729Z 20009KT 24/14 A3009 RMK A01 T02400141  RH  054%=      5-min Rain = 0
KCL1 161730Z 18008KT 24/14 A3009 RMK A01 T02420142  RH  053%=      5-min Rain = 0
KCL1 161731Z 19007KT 25/14 A3008 RMK A01 T02450142  RH  053%=      5-min Rain = 0
KCL1 161732Z 18008KT 25/14 A3008 RMK A01 T02460142  RH  052%=      5-min Rain = 0
KCL1 161733Z 19013KT 25/14 A3008 RMK A01 T02470142  RH  052%=      5-min Rain = 0
KCL1 161734Z 20012G18KT 25/14 A3008 RMK A01 T02470141  RH  052%=      5-min Rain = 0
KCL1 161735Z 19014KT 25/14 A3008 RMK A01 T02460141  RH  052%=      5-min Rain = 0
KCL1 161736Z 17016G21KT 24/14 A3008 RMK A01 T02440141  RH  052%=      5-min Rain = 0
KCL1 161737Z 16013G18KT 24/14 A3008 RMK A01 T02420140  RH  053%=      5-min Rain = 0
KCL1 161738Z 16011KT 24/14 A3008 RMK A01 T02400140  RH  054%=      5-min Rain = 0
KCL1 161739Z 18010G16KT 24/14 A3008 RMK A01 T02400141  RH  054%=      5-min Rain = 0
KCL1 161740Z 18010KT 24/14 A3008 RMK A01 T02420141  RH  053%=      5-min Rain = 0
KCL1 161741Z 17011KT 24/14 A3008 RMK A01 T02440142  RH  053%=      5-min Rain = 0
KCL1 161742Z 18013KT 25/14 A3008 RMK A01 T02460142  RH  052%=      5-min Rain = 0
KCL1 161743Z 18013KT 25/14 A3008 RMK A01 T02490142  RH  051%=      5-min Rain = 0
KCL1 161744Z 18011KT 25/14 A3008 RMK A01 T02490142  RH  051%=      5-min Rain = 0
KCL1 161745Z 17014KT 25/14 A3008 RMK A01 T02490142  RH  051%=      5-min Rain = 0
KCL1 161746Z 16015KT 25/14 A3008 RMK A01 T02480140  RH  051%=      5-min Rain = 0
KCL1 161747Z 17011KT 25/14 A3008 RMK A01 T02460140  RH  052%=      5-min Rain = 0
KCL1 161748Z 17015KT 25/14 A3007 RMK A01 T02460140  RH  052%=      5-min Rain = 0
KCL1 161749Z 16014KT 25/14 A3007 RMK A01 T02450138  RH  051%=      5-min Rain = 0
KCL1 161750Z 16015KT 24/14 A3007 RMK A01 T02440139  RH  052%=      5-min Rain = 0
KCL1 161751Z 17015KT 24/14 A3007 RMK A01 T02430138  RH  052%=      5-min Rain = 0
KCL1 161752Z 18014G21KT 24/14 A3007 RMK A01 T02420138  RH  052%=      5-min Rain = 0
KCL1 161753Z 17011G17KT 24/14 A3007 RMK A01 T02410138  RH  053%=      5-min Rain = 0
KCL1 161754Z 17012KT 25/14 A3007 RMK A01 T02460141  RH  052%=      5-min Rain = 0
KCL1 161755Z 17015KT 25/14 A3007 RMK A01 T02500140  RH  050%=      5-min Rain = 0
KCL1 161756Z 18010KT 25/14 A3007 RMK A01 T02480139  RH  051%=      5-min Rain = 0
KCL1 161757Z 18013KT 25/14 A3007 RMK A01 T02470138  RH  051%=      5-min Rain = 0
KCL1 161758Z 18016KT 25/14 A3007 RMK A01 T02470137  RH  050%=      5-min Rain = 0
KCL1 161759Z 16013G18KT 25/14 A3007 RMK A01 T02460137  RH  051%=      5-min Rain = 0
KCL1 161800Z 17010KT 25/14 A3007 RMK A01 T02470138  RH  051%=      5-min Rain = 0
KCL1 161801Z 17014KT 25/14 A3007 RMK A01 T02530140  RH  049%=      5-min Rain = 0
KCL1 161802Z 16011KT 25/14 A3007 RMK A01 T02540138  RH  048%=      5-min Rain = 0
KCL1 161803Z 16012KT 25/14 A3007 RMK A01 T02540138  RH  049%=      5-min Rain = 0
KCL1 161804Z 16010KT 25/14 A3007 RMK A01 T02540137  RH  048%=      5-min Rain = 0
KCL1 161805Z 18012KT 25/14 A3007 RMK A01 T02540137  RH  048%=      5-min Rain = 0
KCL1 161806Z 18012KT 25/14 A3007 RMK A01 T02520137  RH  049%=      5-min Rain = 0
KCL1 161807Z 18013KT 25/14 A3007 RMK A01 T02520136  RH  049%=      5-min Rain = 0
KCL1 161808Z 18015KT 25/14 A3006 RMK A01 T02540137  RH  048%=      5-min Rain = 0
KCL1 161809Z 18013KT 26/14 A3006 RMK A01 T02550137  RH  048%=      5-min Rain = 0
KCL1 161810Z 19014KT 25/14 A3006 RMK A01 T02530137  RH  049%=      5-min Rain = 0
KCL1 161811Z 18011KT 25/14 A3006 RMK A01 T02530137  RH  049%=      5-min Rain = 0
KCL1 161812Z 19012G19KT 26/14 A3006 RMK A01 T02550138  RH  048%=      5-min Rain = 0
KCL1 161813Z 20015G20KT 26/14 A3006 RMK A01 T02560139  RH  048%=      5-min Rain = 0
KCL1 161814Z 20014KT 26/14 A3006 RMK A01 T02560141  RH  049%=      5-min Rain = 0
KCL1 161815Z 19016KT 26/14 A3006 RMK A01 T02580141  RH  048%=      5-min Rain = 0
KCL1 161816Z 17014KT 26/14 A3006 RMK A01 T02580141  RH  048%=      5-min Rain = 0
KCL1 161817Z 18011KT 26/14 A3006 RMK A01 T02590142  RH  049%=      5-min Rain = 0
KCL1 161818Z 18012KT 26/14 A3006 RMK A01 T02600143  RH  048%=      5-min Rain = 0
KCL1 161819Z 17013KT 26/14 A3006 RMK A01 T02620143  RH  048%=      5-min Rain = 0
KCL1 161820Z 17013KT 26/14 A3006 RMK A01 T02630143  RH  047%=      5-min Rain = 0
KCL1 161821Z 20011KT 26/14 A3006 RMK A01 T02640143  RH  048%=      5-min Rain = 0
KCL1 161822Z 19012KT 26/14 A3006 RMK A01 T02640143  RH  047%=      5-min Rain = 0
KCL1 161823Z 17013KT 26/14 A3006 RMK A01 T02630142  RH  048%=      5-min Rain = 0
KCL1 161824Z 18010G15KT 26/14 A3005 RMK A01 T02630144  RH  048%=      5-min Rain = 0
KCL1 161825Z 17014KT 27/14 A3005 RMK A01 T02650143  RH  047%=      5-min Rain = 0
KCL1 161826Z 18011KT 27/14 A3005 RMK A01 T02650143  RH  047%=      5-min Rain = 0
KCL1 161827Z 17013KT 27/14 A3005 RMK A01 T02660143  RH  047%=      5-min Rain = 0
KCL1 161828Z 17011KT 26/14 A3005 RMK A01 T02630141  RH  047%=      5-min Rain = 0
KCL1 161829Z 19011KT 26/14 A3005 RMK A01 T02600142  RH  048%=      5-min Rain = 0
KCL1 161830Z 18012KT 26/14 A3005 RMK A01 T02610143  RH  048%=      5-min Rain = 0
KCL1 161831Z 19016KT 26/14 A3005 RMK A01 T02630142  RH  047%=      5-min Rain = 0
KCL1 161832Z 17014KT 26/14 A3005 RMK A01 T02620141  RH  047%=      5-min Rain = 0
KCL1 161833Z 18013KT 26/14 A3005 RMK A01 T02620142  RH  048%=      5-min Rain = 0
KCL1 161834Z 17014KT 26/14 A3005 RMK A01 T02640143  RH  047%=      5-min Rain = 0
KCL1 161835Z 21013G18KT 27/14 A3005 RMK A01 T02680144  RH  047%=      5-min Rain = 0
KCL1 161836Z 21010KT 27/14 A3005 RMK A01 T02700143  RH  046%=      5-min Rain = 0
KCL1 161837Z 20008KT 27/14 A3005 RMK A01 T02680142  RH  046%=      5-min Rain = 0
KCL1 161838Z 17007G13KT 27/14 A3005 RMK A01 T02650144  RH  047%=      5-min Rain = 0
KCL1 161839Z 17014KT 27/14 A3005 RMK A01 T02700144  RH  046%=      5-min Rain = 0
KCL1 161840Z 17017KT 27/14 A3005 RMK A01 T02740142  RH  044%=      5-min Rain = 0
KCL1 161841Z 18013KT 27/14 A3005 RMK A01 T02690140  RH  045%=      5-min Rain = 0
KCL1 161842Z 18012KT 27/14 A3005 RMK A01 T02650140  RH  046%=      5-min Rain = 0
KCL1 161843Z 18011KT 27/14 A3005 RMK A01 T02650141  RH  046%=      5-min Rain = 0
KCL1 161844Z 19011KT 27/14 A3005 RMK A01 T02650141  RH  046%=      5-min Rain = 0
KCL1 161845Z 18011KT 26/14 A3004 RMK A01 T02640140  RH  046%=      5-min Rain = 0
KCL1 161846Z 20011KT 26/14 A3004 RMK A01 T02640141  RH  047%=      5-min Rain = 0
KCL1 161847Z 20012G17KT 27/14 A3004 RMK A01 T02680143  RH  046%=      5-min Rain = 0
KCL1 161848Z 21014KT 27/14 A3004 RMK A01 T02700142  RH  045%=      5-min Rain = 0
KCL1 161849Z 20009KT 27/14 A3004 RMK A01 T02670141  RH  046%=      5-min Rain = 0
KCL1 161850Z 19008G14KT 27/14 A3005 RMK A01 T02660141  RH  046%=      5-min Rain = 0
KCL1 161851Z 20014G19KT 27/14 A3004 RMK A01 T02650140  RH  046%=      5-min Rain = 0
KCL1 161852Z 20014KT 26/14 A3004 RMK A01 T02620139  RH  047%=      5-min Rain = 0
KCL1 161853Z 21015KT 26/14 A3004 RMK A01 T02600139  RH  047%=      5-min Rain = 0
KCL1 161854Z 19014G19KT 26/14 A3004 RMK A01 T02590138  RH  047%=      5-min Rain = 0
KCL1 161855Z 19011KT 26/14 A3004 RMK A01 T02590139  RH  048%=      5-min Rain = 0
KCL1 161856Z 18013KT 26/14 A3004 RMK A01 T02630139  RH  046%=      5-min Rain = 0
KCL1 161857Z 19012KT 27/14 A3004 RMK A01 T02680140  RH  045%=      5-min Rain = 0
KCL1 161858Z 18013KT 27/14 A3004 RMK A01 T02720139  RH  044%=      5-min Rain = 0
KCL1 161859Z 19014KT 27/14 A3004 RMK A01 T02740140  RH  044%=      5-min Rain = 0
KCL1 161900Z 19012KT 28/14 A3004 RMK A01 T02750140  RH  043%=      5-min Rain = 0
KCL1 161901Z 20011G18KT 28/14 A3004 RMK A01 T02750138  RH  043%=      5-min Rain = 0
KCL1 161902Z 19014KT 27/14 A3004 RMK A01 T02740137  RH  043%=      5-min Rain = 0
KCL1 161903Z 19011KT 28/14 A3004 RMK A01 T02760137  RH  042%=      5-min Rain = 0
KCL1 161904Z 19010KT 28/14 A3004 RMK A01 T02770137  RH  042%=      5-min Rain = 0
KCL1 161905Z 18012KT 28/14 A3004 RMK A01 T02750136  RH  042%=      5-min Rain = 0
KCL1 161906Z 18015G21KT 27/14 A3004 RMK A01 T02700135  RH  043%=      5-min Rain = 0
KCL1 161907Z 19013KT 27/13 A3004 RMK A01 T02680134  RH  044%=      5-min Rain = 0
KCL1 161908Z 19014KT 27/13 A3004 RMK A01 T02650134  RH  044%=      5-min Rain = 0
KCL1 161909Z 20011KT 27/13 A3004 RMK A01 T02660134  RH  044%=      5-min Rain = 0
KCL1 161910Z 21011KT 27/13 A3004 RMK A01 T02660134  RH  044%=      5-min Rain = 0
KCL1 161911Z 22009G14KT 27/13 A3004 RMK A01 T02660133  RH  044%=      5-min Rain = 0
KCL1 161912Z 21010G15KT 27/13 A3004 RMK A01 T02650133  RH  044%=      5-min Rain = 0
KCL1 161913Z 23010KT 26/13 A3004 RMK A01 T02640133  RH  044%=      5-min Rain = 0
KCL1 161914Z 20013KT 26/13 A3004 RMK A01 T02630133  RH  044%=      5-min Rain = 0
KCL1 161915Z 18012KT 26/13 A3004 RMK A01 T02630132  RH  044%=      5-min Rain = 0
KCL1 161916Z 19011KT 26/13 A3004 RMK A01 T02630132  RH  044%=      5-min Rain = 0
KCL1 161917Z 17009KT 26/13 A3004 RMK A01 T02640133  RH  044%=      5-min Rain = 0
KCL1 161918Z 18008KT 27/13 A3004 RMK A01 T02660134  RH  044%=      5-min Rain = 0
KCL1 161919Z 16011KT 27/14 A3004 RMK A01 T02710135  RH  043%=      5-min Rain = 0
KCL1 161920Z 17008KT 28/13 A3004 RMK A01 T02750134  RH  042%=      5-min Rain = 0
KCL1 161921Z 18008KT 28/13 A3004 RMK A01 T02760134  RH  041%=      5-min Rain = 0
KCL1 161922Z 18007KT 28/13 A3004 RMK A01 T02780133  RH  041%=      5-min Rain = 0
KCL1 161923Z 19009KT 28/13 A3004 RMK A01 T02780134  RH  041%=      5-min Rain = 0
KCL1 161924Z 21010G16KT 28/13 A3004 RMK A01 T02800132  RH  040%=      5-min Rain = 0
KCL1 161925Z 22011KT 28/13 A3004 RMK A01 T02780131  RH  040%=      5-min Rain = 0
KCL1 161926Z 24010KT 27/13 A3004 RMK A01 T02720130  RH  041%=      5-min Rain = 0
KCL1 161927Z 22011G16KT 27/13 A3004 RMK A01 T02710130  RH  042%=      5-min Rain = 0
KCL1 161928Z 20009G14KT 27/13 A3004 RMK A01 T02710130  RH  042%=      5-min Rain = 0
KCL1 161929Z 18014G20KT 27/13 A3004 RMK A01 T02720129  RH  041%=      5-min Rain = 0
KCL1 161930Z 18014G20KT 27/13 A3004 RMK A01 T02720129  RH  041%=      5-min Rain = 0
KCL1 161931Z 19016KT 28/13 A3004 RMK A01 T02760130  RH  040%=      5-min Rain = 0
KCL1 161932Z 19011G17KT 28/13 A3004 RMK A01 T02750126  RH  040%=      5-min Rain = 0
KCL1 161933Z 19012KT 27/13 A3004 RMK A01 T02730126  RH  040%=      5-min Rain = 0
KCL1 161934Z 20010KT 27/13 A3004 RMK A01 T02710126  RH  041%=      5-min Rain = 0
KCL1 161935Z 22012G18KT 27/13 A3004 RMK A01 T02700125  RH  041%=      5-min Rain = 0
KCL1 161936Z 22010KT 27/12 A3004 RMK A01 T02700124  RH  040%=      5-min Rain = 0
KCL1 161937Z 22009KT 27/12 A3004 RMK A01 T02710124  RH  040%=      5-min Rain = 0
KCL1 161938Z 20008KT 27/12 A3004 RMK A01 T02710124  RH  040%=      5-min Rain = 0
KCL1 161939Z 21008G13KT 27/12 A3004 RMK A01 T02690124  RH  041%=      5-min Rain = 0
KCL1 161940Z 19012KT 27/13 A3004 RMK A01 T02690126  RH  041%=      5-min Rain = 0
KCL1 161941Z 20009KT 27/13 A3004 RMK A01 T02720127  RH  041%=      5-min Rain = 0
KCL1 161942Z 20008G13KT 28/13 A3004 RMK A01 T02760129  RH  040%=      5-min Rain = 0
KCL1 161943Z 21012KT 28/13 A3004 RMK A01 T02800130  RH  040%=      5-min Rain = 0
KCL1 161944Z 19013KT 28/13 A3004 RMK A01 T02810127  RH  039%=      5-min Rain = 0
KCL1 161945Z 19010KT 28/13 A3004 RMK A01 T02770127  RH  039%=      5-min Rain = 0
KCL1 161946Z 20010KT 28/13 A3004 RMK A01 T02750127  RH  040%=      5-min Rain = 0
KCL1 161947Z 17006KT 27/13 A3004 RMK A01 T02730126  RH  040%=      5-min Rain = 0
KCL1 161948Z 18007KT 27/13 A3004 RMK A01 T02720127  RH  041%=      5-min Rain = 0
KCL1 161949Z 19003KT 27/13 A3004 RMK A01 T02740127  RH  040%=      5-min Rain = 0
KCL1 161950Z 21006G14KT 27/13 A3004 RMK A01 T02740128  RH  040%=      5-min Rain = 0
KCL1 161951Z 20013G18KT 27/13 A3004 RMK A01 T02730127  RH  040%=      5-min Rain = 0
KCL1 161952Z 20011G17KT 27/13 A3004 RMK A01 T02730125  RH  040%=      5-min Rain = 0
KCL1 161953Z 20013G18KT 27/13 A3004 RMK A01 T02720125  RH  040%=      5-min Rain = 0
KCL1 161954Z 20015KT 27/13 A3004 RMK A01 T02720125  RH  040%=      5-min Rain = 0
KCL1 161955Z 20014KT 27/12 A3004 RMK A01 T02720124  RH  040%=      5-min Rain = 0
KCL1 161956Z 21010KT 27/12 A3004 RMK A01 T02720124  RH  040%=      5-min Rain = 0
KCL1 161957Z 20007KT 27/12 A3004 RMK A01 T02720124  RH  040%=      5-min Rain = 0
KCL1 161958Z 19004KT 27/12 A3004 RMK A01 T02720124  RH  040%=      5-min Rain = 0
KCL1 161959Z 17010KT 27/13 A3004 RMK A01 T02720126  RH  040%=      5-min Rain = 0
KCL1 162000Z 20010G15KT 27/13 A3004 RMK A01 T02740127  RH  040%=      5-min Rain = 0
KCL1 162001Z 19011KT 28/13 A3003 RMK A01 T02770128  RH  040%=      5-min Rain = 0
KCL1 162002Z 20015KT 28/13 A3003 RMK A01 T02790127  RH  039%=      5-min Rain = 0
KCL1 162003Z 20013G18KT 28/13 A3003 RMK A01 T02780126  RH  039%=      5-min Rain = 0
KCL1 162004Z 22012KT 28/13 A3003 RMK A01 T02760126  RH  039%=      5-min Rain = 0
KCL1 162005Z 19017G23KT 28/13 A3003 RMK A01 T02780126  RH  039%=      5-min Rain = 0
KCL1 162006Z 20014KT 28/13 A3003 RMK A01 T02790125  RH  038%=      5-min Rain = 0
KCL1 162007Z 20013KT 28/13 A3003 RMK A01 T02800127  RH  039%=      5-min Rain = 0
KCL1 162008Z 18013KT 28/13 A3003 RMK A01 T02820127  RH  039%=      5-min Rain = 0
KCL1 162009Z 19013KT 28/13 A3003 RMK A01 T02820128  RH  039%=      5-min Rain = 0
KCL1 162010Z 19011KT 28/13 A3003 RMK A01 T02790127  RH  039%=      5-min Rain = 0
KCL1 162011Z 18010KT 28/13 A3003 RMK A01 T02780129  RH  040%=      5-min Rain = 0
KCL1 162012Z 19011G16KT 28/13 A3003 RMK A01 T02810131  RH  040%=      5-min Rain = 0
KCL1 162013Z 21013KT 29/13 A3003 RMK A01 T02850130  RH  038%=      5-min Rain = 0
KCL1 162014Z 21011G16KT 28/13 A3003 RMK A01 T02830129  RH  039%=      5-min Rain = 0
KCL1 162015Z 21011KT 28/13 A3003 RMK A01 T02780129  RH  040%=      5-min Rain = 0
KCL1 162016Z 20010KT 28/13 A3003 RMK A01 T02770129  RH  040%=      5-min Rain = 0
KCL1 162017Z 17012KT 28/13 A3003 RMK A01 T02810132  RH  040%=      5-min Rain = 0
KCL1 162018Z 19013KT 28/13 A3003 RMK A01 T02840132  RH  039%=      5-min Rain = 0
KCL1 162019Z 18011KT 29/13 A3003 RMK A01 T02850132  RH  039%=      5-min Rain = 0
KCL1 162020Z 17008KT 28/13 A3003 RMK A01 T02840133  RH  039%=      5-min Rain = 0
KCL1 162021Z 19009KT 28/13 A3003 RMK A01 T02830132  RH  039%=      5-min Rain = 0
KCL1 162022Z 20015G22KT 28/13 A3003 RMK A01 T02800130  RH  040%=      5-min Rain = 0
KCL1 162023Z 18013KT 28/13 A3003 RMK A01 T02760128  RH  040%=      5-min Rain = 0
KCL1 162024Z 18013KT 27/13 A3003 RMK A01 T02740130  RH  041%=      5-min Rain = 0
KCL1 162025Z 21014KT 28/13 A3003 RMK A01 T02780131  RH  040%=      5-min Rain = 0
KCL1 162026Z 21009KT 28/13 A3003 RMK A01 T02820129  RH  039%=      5-min Rain = 0
KCL1 162027Z 20010KT 28/13 A3003 RMK A01 T02820129  RH  039%=      5-min Rain = 0
KCL1 162028Z 20006KT 28/13 A3003 RMK A01 T02830130  RH  039%=      5-min Rain = 0
KCL1 162029Z 23008KT 28/13 A3003 RMK A01 T02840130  RH  038%=      5-min Rain = 0
KCL1 162030Z 20009KT 28/13 A3003 RMK A01 T02830129  RH  039%=      5-min Rain = 0
KCL1 162031Z 23010G15KT 28/13 A3003 RMK A01 T02810129  RH  039%=      5-min Rain = 0
KCL1 162032Z 21008KT 28/13 A3003 RMK A01 T02800129  RH  039%=      5-min Rain = 0
KCL1 162033Z 16011KT 28/13 A3003 RMK A01 T02790130  RH  040%=      5-min Rain = 0
KCL1 162034Z 16012KT 28/13 A3003 RMK A01 T02780131  RH  040%=      5-min Rain = 0
KCL1 162035Z 15013KT 28/13 A3003 RMK A01 T02790132  RH  040%=      5-min Rain = 0
KCL1 162036Z 15014KT 28/13 A3003 RMK A01 T02800132  RH  040%=      5-min Rain = 0
KCL1 162037Z 15016KT 28/13 A3002 RMK A01 T02800132  RH  040%=      5-min Rain = 0
KCL1 162038Z 16014G19KT 28/13 A3002 RMK A01 T02810131  RH  040%=      5-min Rain = 0
KCL1 162039Z 16012KT 28/13 A3002 RMK A01 T02820131  RH  039%=      5-min Rain = 0
KCL1 162040Z 18008KT 28/13 A3003 RMK A01 T02830132  RH  039%=      5-min Rain = 0
KCL1 162041Z 21009KT 29/13 A3003 RMK A01 T02870134  RH  039%=      5-min Rain = 0
KCL1 162042Z 20016KT 29/13 A3003 RMK A01 T02900132  RH  038%=      5-min Rain = 0
KCL1 162043Z 19012KT 29/13 A3003 RMK A01 T02900132  RH  038%=      5-min Rain = 0
KCL1 162044Z 19012KT 29/13 A3003 RMK A01 T02890132  RH  038%=      5-min Rain = 0
KCL1 162045Z 21008KT 29/13 A3003 RMK A01 T02870131  RH  038%=      5-min Rain = 0
KCL1 162046Z 16009KT 29/13 A3003 RMK A01 T02850132  RH  039%=      5-min Rain = 0
KCL1 162047Z 15011KT 29/13 A3002 RMK A01 T02860131  RH  039%=      5-min Rain = 0
KCL1 162048Z 14012KT 29/13 A3002 RMK A01 T02860130  RH  038%=      5-min Rain = 0
KCL1 162049Z 16010KT 28/13 A3002 RMK A01 T02840130  RH  039%=      5-min Rain = 0
KCL1 162050Z 16009KT 28/13 A3002 RMK A01 T02840131  RH  039%=      5-min Rain = 0
KCL1 162051Z 23010KT 28/13 A3002 RMK A01 T02840130  RH  039%=      5-min Rain = 0
KCL1 162052Z 18009KT 28/13 A3002 RMK A01 T02820129  RH  039%=      5-min Rain = 0
KCL1 162053Z 17013KT 28/13 A3002 RMK A01 T02800131  RH  040%=      5-min Rain = 0
KCL1 162054Z 16010G16KT 28/13 A3002 RMK A01 T02780132  RH  041%=      5-min Rain = 0
KCL1 162055Z 16011KT 28/13 A3002 RMK A01 T02770133  RH  041%=      5-min Rain = 0
KCL1 162056Z 15013KT 28/14 A3002 RMK A01 T02760135  RH  042%=      5-min Rain = 0
KCL1 162057Z 15009KT 28/14 A3002 RMK A01 T02760135  RH  042%=      5-min Rain = 0
KCL1 162058Z 17005KT 28/14 A3002 RMK A01 T02760136  RH  042%=      5-min Rain = 0
KCL1 162059Z 20008KT 28/13 A3002 RMK A01 T02790134  RH  041%=      5-min Rain = 0
KCL1 162100Z 21011KT 28/13 A3002 RMK A01 T02800132  RH  040%=      5-min Rain = 0
KCL1 162101Z 19011KT 28/13 A3002 RMK A01 T02810132  RH  040%=      5-min Rain = 0
KCL1 162102Z 18013G18KT 28/14 A3002 RMK A01 T02810135  RH  041%=      5-min Rain = 0
KCL1 162103Z 16009KT 28/14 A3002 RMK A01 T02800136  RH  041%=      5-min Rain = 0
KCL1 162104Z 17011G16KT 28/14 A3002 RMK A01 T02790137  RH  042%=      5-min Rain = 0
KCL1 162105Z 16011KT 28/14 A3002 RMK A01 T02790137  RH  042%=      5-min Rain = 0
KCL1 162106Z 17013KT 28/14 A3002 RMK A01 T02790136  RH  041%=      5-min Rain = 0
KCL1 162107Z 16011KT 28/13 A3002 RMK A01 T02800134  RH  041%=      5-min Rain = 0
KCL1 162108Z 17008KT 28/14 A3002 RMK A01 T02820136  RH  041%=      5-min Rain = 0
KCL1 162109Z 15010KT 29/14 A3002 RMK A01 T02860137  RH  040%=      5-min Rain = 0
KCL1 162110Z 16008KT 29/14 A3002 RMK A01 T02860139  RH  041%=      5-min Rain = 0
KCL1 162111Z 18010KT 28/14 A3002 RMK A01 T02840139  RH  041%=      5-min Rain = 0
KCL1 162112Z 17012KT 28/14 A3001 RMK A01 T02810138  RH  041%=      5-min Rain = 0
KCL1 162113Z 17011KT 28/14 A3001 RMK A01 T02770139  RH  043%=      5-min Rain = 0
KCL1 162114Z 16011KT 28/14 A3002 RMK A01 T02750139  RH  043%=      5-min Rain = 0
KCL1 162115Z 17013KT 27/14 A3002 RMK A01 T02740138  RH  043%=      5-min Rain = 0
KCL1 162116Z 15012KT 27/14 A3002 RMK A01 T02720138  RH  044%=      5-min Rain = 0
KCL1 162117Z 15013KT 27/14 A3002 RMK A01 T02720138  RH  044%=      5-min Rain = 0
KCL1 162118Z 14010KT 27/14 A3001 RMK A01 T02720138  RH  044%=      5-min Rain = 0
KCL1 162119Z 13011KT 28/14 A3001 RMK A01 T02760140  RH  043%=      5-min Rain = 0
KCL1 162120Z 16012KT 28/14 A3001 RMK A01 T02800141  RH  043%=      5-min Rain = 0
KCL1 162121Z 16012KT 28/14 A3001 RMK A01 T02840140  RH  041%=      5-min Rain = 0
KCL1 162122Z 16014KT 28/14 A3001 RMK A01 T02840140  RH  041%=      5-min Rain = 0
KCL1 162123Z 16013KT 28/14 A3001 RMK A01 T02830140  RH  042%=      5-min Rain = 0
KCL1 162124Z 16014KT 28/14 A3001 RMK A01 T02830141  RH  042%=      5-min Rain = 0
KCL1 162125Z 16013KT 28/14 A3001 RMK A01 T02810139  RH  042%=      5-min Rain = 0
KCL1 162126Z 15011KT 28/14 A3001 RMK A01 T02780139  RH  042%=      5-min Rain = 0
KCL1 162127Z 14011KT 28/14 A3001 RMK A01 T02780140  RH  043%=      5-min Rain = 0
KCL1 162128Z 16010KT 28/14 A3001 RMK A01 T02800140  RH  042%=      5-min Rain = 0
KCL1 162129Z 15008KT 28/14 A3001 RMK A01 T02800140  RH  042%=      5-min Rain = 0
KCL1 162130Z 16010KT 28/14 A3001 RMK A01 T02790141  RH  043%=      5-min Rain = 0
KCL1 162131Z 16011KT 28/14 A3001 RMK A01 T02770141  RH  043%=      5-min Rain = 0
KCL1 162132Z 14012KT 27/14 A3001 RMK A01 T02740141  RH  044%=      5-min Rain = 0
KCL1 162133Z 15013KT 27/14 A30 RMK A01 T02720141  RH  045%=      5-min Rain = 0
KCL1 162134Z 16012KT 27/14 A3001 RMK A01 T02690141  RH  045%=      5-min Rain = 0
KCL1 162135Z 18010G15KT 27/14 A3001 RMK A01 T02680141  RH  046%=      5-min Rain = 0
KCL1 162136Z 16009KT 27/14 A3001 RMK A01 T02680141  RH  046%=      5-min Rain = 0
KCL1 162137Z 16011KT 27/14 A3001 RMK A01 T02680140  RH  045%=      5-min Rain = 0
KCL1 162138Z 16011KT 27/14 A3001 RMK A01 T02680140  RH  045%=      5-min Rain = 0
KCL1 162139Z 15012KT 27/14 A3001 RMK A01 T02670139  RH  045%=      5-min Rain = 0
KCL1 162140Z 15009KT 27/14 A30 RMK A01 T02660139  RH  045%=      5-min Rain = 0
KCL1 162141Z 15009KT 27/14 A30 RMK A01 T02650139  RH  046%=      5-min Rain = 0
KCL1 162142Z 16009KT 27/14 A30 RMK A01 T02650139  RH  046%=      5-min Rain = 0
KCL1 162143Z 14008KT 27/14 A30 RMK A01 T02650139  RH  046%=      5-min Rain = 0
KCL1 162144Z 15012KT 27/14 A30 RMK A01 T02660138  RH  045%=      5-min Rain = 0
KCL1 162145Z 15011KT 27/14 A30 RMK A01 T02660138  RH  045%=      5-min Rain = 0
KCL1 162146Z 15009KT 27/14 A30 RMK A01 T02670137  RH  045%=      5-min Rain = 0
KCL1 162147Z 16011G17KT 27/14 A30 RMK A01 T02680137  RH  045%=      5-min Rain = 0
KCL1 162148Z 17013KT 27/14 A30 RMK A01 T02680138  RH  045%=      5-min Rain = 0
KCL1 162149Z 19011KT 27/14 A30 RMK A01 T02690138  RH  045%=      5-min Rain = 0
KCL1 162150Z 18006KT 27/14 A30 RMK A01 T02710140  RH  045%=      5-min Rain = 0
KCL1 162151Z 16006KT 28/14 A30 RMK A01 T02750141  RH  044%=      5-min Rain = 0
KCL1 162152Z 16007KT 28/14 A30 RMK A01 T02800143  RH  043%=      5-min Rain = 0
KCL1 162153Z 15010KT 28/14 A30 RMK A01 T02840142  RH  042%=      5-min Rain = 0
KCL1 162154Z 15010KT 29/14 A30 RMK A01 T02860143  RH  041%=      5-min Rain = 0
KCL1 162155Z 14012G17KT 29/14 A30 RMK A01 T02860143  RH  042%=      5-min Rain = 0
KCL1 162156Z 17012G18KT 29/14 A30 RMK A01 T02880143  RH  041%=      5-min Rain = 0
KCL1 162157Z 18012KT 29/14 A30 RMK A01 T02900141  RH  040%=      5-min Rain = 0
KCL1 162158Z 18012KT 29/14 A30 RMK A01 T02890141  RH  040%=      5-min Rain = 0
KCL1 162159Z 18012KT 29/14 A2999 RMK A01 T02880140  RH  040%=      5-min Rain = 0
KCL1 162200Z 16011KT 29/14 A2999 RMK A01 T02860139  RH  040%=      5-min Rain = 0
KCL1 162201Z 16013G18KT 29/14 A2999 RMK A01 T02850139  RH  041%=      5-min Rain = 0
KCL1 162202Z 15009KT 29/14 A2999 RMK A01 T02860138  RH  040%=      5-min Rain = 0
KCL1 162203Z 16007KT 29/14 A2999 RMK A01 T02860139  RH  040%=      5-min Rain = 0
KCL1 162204Z 14010KT 29/14 A2999 RMK A01 T02880141  RH  041%=      5-min Rain = 0
KCL1 162205Z 16016G21KT 29/14 A2999 RMK A01 T02890142  RH  041%=      5-min Rain = 0
KCL1 162206Z 16016KT 29/14 A2999 RMK A01 T02890141  RH  040%=      5-min Rain = 0
KCL1 162207Z 16015G20KT 29/14 A2999 RMK A01 T02880141  RH  041%=      5-min Rain = 0
KCL1 162208Z 15013KT 29/14 A2999 RMK A01 T02880141  RH  041%=      5-min Rain = 0
KCL1 162209Z 18016KT 29/14 A2999 RMK A01 T02860140  RH  041%=      5-min Rain = 0
KCL1 162210Z 18013KT 29/14 A2999 RMK A01 T02880139  RH  040%=      5-min Rain = 0
KCL1 162211Z 19012KT 29/14 A2999 RMK A01 T02890138  RH  040%=      5-min Rain = 0
KCL1 162212Z 18008KT 29/14 A2999 RMK A01 T02880139  RH  040%=      5-min Rain = 0
KCL1 162213Z 20005KT 29/14 A2999 RMK A01 T02890138  RH  040%=      5-min Rain = 0
KCL1 162214Z 19010KT 29/14 A2999 RMK A01 T02900139  RH  039%=      5-min Rain = 0
KCL1 162215Z 18006KT 29/14 A2999 RMK A01 T02920140  RH  039%=      5-min Rain = 0
KCL1 162216Z 16008KT 29/14 A2999 RMK A01 T02920140  RH  039%=      5-min Rain = 0
KCL1 162217Z 18009KT 29/14 A2999 RMK A01 T02920140  RH  039%=      5-min Rain = 0
KCL1 162218Z 16008KT 29/14 A2998 RMK A01 T02910140  RH  040%=      5-min Rain = 0
KCL1 162219Z 16010KT 29/14 A2998 RMK A01 T02910140  RH  040%=      5-min Rain = 0
KCL1 162220Z 17012G18KT 29/14 A2998 RMK A01 T02930141  RH  039%=      5-min Rain = 0
KCL1 162221Z 18011G18KT 29/14 A2998 RMK A01 T02930140  RH  039%=      5-min Rain = 0
KCL1 162222Z 20008KT 29/14 A2998 RMK A01 T02920140  RH  039%=      5-min Rain = 0
KCL1 162223Z 19011KT 29/14 A2998 RMK A01 T02930140  RH  039%=      5-min Rain = 0
KCL1 162224Z 19012KT 29/14 A2998 RMK A01 T02930140  RH  039%=      5-min Rain = 0
KCL1 162225Z 17013G19KT 29/14 A2998 RMK A01 T02930139  RH  039%=      5-min Rain = 0
KCL1 162226Z 16012KT 29/14 A2999 RMK A01 T02910138  RH  039%=      5-min Rain = 0
KCL1 162227Z 16013KT 29/14 A2998 RMK A01 T02900139  RH  040%=      5-min Rain = 0
KCL1 162228Z 16011KT 29/14 A2998 RMK A01 T02900138  RH  039%=      5-min Rain = 0
KCL1 162229Z 16010KT 29/14 A2998 RMK A01 T02910139  RH  039%=      5-min Rain = 0
KCL1 162230Z 18009KT 29/14 A2998 RMK A01 T02920138  RH  039%=      5-min Rain = 0
KCL1 162231Z 17008KT 29/14 A2998 RMK A01 T02920138  RH  039%=      5-min Rain = 0
KCL1 162232Z 15010KT 29/14 A2998 RMK A01 T02930138  RH  039%=      5-min Rain = 0
KCL1 162233Z 15012KT 29/14 A2998 RMK A01 T02920138  RH  039%=      5-min Rain = 0
KCL1 162234Z 18011KT 29/14 A2998 RMK A01 T02920138  RH  039%=      5-min Rain = 0
KCL1 162235Z 18011KT 29/14 A2998 RMK A01 T02910139  RH  039%=      5-min Rain = 0
KCL1 162236Z 19010KT 29/14 A2998 RMK A01 T02910138  RH  039%=      5-min Rain = 0
KCL1 162237Z 17009KT 29/14 A2998 RMK A01 T02910138  RH  039%=      5-min Rain = 0
KCL1 162238Z 17011KT 29/14 A2998 RMK A01 T02890137  RH  039%=      5-min Rain = 0
KCL1 162239Z 17007KT 29/14 A2998 RMK A01 T02880137  RH  040%=      5-min Rain = 0
KCL1 162240Z 19009G15KT 29/14 A2998 RMK A01 T02870137  RH  040%=      5-min Rain = 0
KCL1 162241Z 17011G16KT 29/14 A2998 RMK A01 T02870136  RH  040%=      5-min Rain = 0
KCL1 162242Z 16007KT 29/14 A2998 RMK A01 T02880136  RH  039%=      5-min Rain = 0
KCL1 162243Z 16010KT 29/14 A2998 RMK A01 T02880137  RH  040%=      5-min Rain = 0
KCL1 162244Z 17010KT 29/14 A2998 RMK A01 T02900136  RH  039%=      5-min Rain = 0
KCL1 162245Z 17009KT 29/14 A2998 RMK A01 T02900136  RH  039%=      5-min Rain = 0
KCL1 162246Z 19010G15KT 29/14 A2998 RMK A01 T02900136  RH  039%=      5-min Rain = 0
KCL1 162247Z 18007KT 29/14 A2998 RMK A01 T02880135  RH  039%=      5-min Rain = 0
KCL1 162248Z 19012KT 29/14 A2998 RMK A01 T02880136  RH  039%=      5-min Rain = 0
KCL1 162249Z 19010KT 29/14 A2998 RMK A01 T02900136  RH  039%=      5-min Rain = 0
KCL1 162250Z 18012G17KT 29/14 A2998 RMK A01 T02920136  RH  038%=      5-min Rain = 0
KCL1 162251Z 17015KT 29/14 A2998 RMK A01 T02930136  RH  038%=      5-min Rain = 0
KCL1 162252Z 18011KT 29/14 A2998 RMK A01 T02930136  RH  038%=      5-min Rain = 0
KCL1 162253Z 17012KT 29/14 A2998 RMK A01 T02940136  RH  038%=      5-min Rain = 0
KCL1 162254Z 17007KT 29/14 A2998 RMK A01 T02930136  RH  038%=      5-min Rain = 0
KCL1 162255Z 17009KT 29/14 A2998 RMK A01 T02920136  RH  038%=      5-min Rain = 0
KCL1 162256Z 15011G16KT 29/14 A2998 RMK A01 T02920136  RH  038%=      5-min Rain = 0
KCL1 162257Z 16011KT 29/14 A2998 RMK A01 T02930136  RH  038%=      5-min Rain = 0
KCL1 162258Z 16015KT 29/13 A2998 RMK A01 T02940134  RH  038%=      5-min Rain = 0
KCL1 162259Z 17010G16KT 29/13 A2998 RMK A01 T02920133  RH  038%=      5-min Rain = 0
KCL1 162300Z 15009KT 29/13 A2998 RMK A01 T02910134  RH  038%=      5-min Rain = 0
KCL1 162301Z 15011KT 29/13 A2998 RMK A01 T02920134  RH  038%=      5-min Rain = 0
KCL1 162302Z 15008KT 29/13 A2998 RMK A01 T02910134  RH  038%=      5-min Rain = 0
KCL1 162303Z 15010G15KT 29/13 A2998 RMK A01 T02910134  RH  038%=      5-min Rain = 0
KCL1 162304Z 19011KT 29/13 A2998 RMK A01 T02920134  RH  038%=      5-min Rain = 0
KCL1 162305Z 18012KT 29/13 A2998 RMK A01 T02930133  RH  037%=      5-min Rain = 0
KCL1 162306Z 19015KT 29/13 A2998 RMK A01 T02930134  RH  038%=      5-min Rain = 0
KCL1 162307Z 17016G22KT 29/13 A2998 RMK A01 T02920133  RH  038%=      5-min Rain = 0
KCL1 162308Z 17012KT 29/13 A2997 RMK A01 T02900132  RH  038%=      5-min Rain = 0
KCL1 162309Z 16008KT 29/13 A2997 RMK A01 T02870132  RH  038%=      5-min Rain = 0
KCL1 162310Z 17009KT 29/13 A2997 RMK A01 T02860133  RH  039%=      5-min Rain = 0
KCL1 162311Z 19009KT 29/13 A2997 RMK A01 T02880133  RH  038%=      5-min Rain = 0
KCL1 162312Z 20010KT 29/13 A2997 RMK A01 T02900131  RH  038%=      5-min Rain = 0
KCL1 162313Z 17009G14KT 29/13 A2997 RMK A01 T02910131  RH  038%=      5-min Rain = 0
KCL1 162314Z 16010KT 29/13 A2997 RMK A01 T02900132  RH  038%=      5-min Rain = 0
KCL1 162315Z 17009KT 29/13 A2997 RMK A01 T02890133  RH  038%=      5-min Rain = 0
KCL1 162316Z 18012KT 29/13 A2997 RMK A01 T02890132  RH  038%=      5-min Rain = 0
KCL1 162317Z 18013KT 29/13 A2997 RMK A01 T02890132  RH  038%=      5-min Rain = 0
KCL1 162318Z 17010KT 29/13 A2997 RMK A01 T02890132  RH  038%=      5-min Rain = 0
KCL1 162319Z 17009KT 29/13 A2997 RMK A01 T02890132  RH  038%=      5-min Rain = 0
KCL1 162320Z 17010KT 29/13 A2997 RMK A01 T02900132  RH  038%=      5-min Rain = 0
KCL1 162321Z 16009KT 29/13 A2997 RMK A01 T02890131  RH  038%=      5-min Rain = 0
KCL1 162322Z 17007KT 29/13 A2997 RMK A01 T02870131  RH  038%=      5-min Rain = 0
KCL1 162323Z 17011KT 29/13 A2997 RMK A01 T02870131  RH  038%=      5-min Rain = 0
KCL1 162324Z 16013KT 29/13 A2997 RMK A01 T02880130  RH  038%=      5-min Rain = 0
KCL1 162325Z 16011KT 29/13 A2997 RMK A01 T02880130  RH  038%=      5-min Rain = 0
KCL1 162326Z 15011KT 29/13 A2997 RMK A01 T02870131  RH  038%=      5-min Rain = 0
KCL1 162327Z 16013KT 29/13 A2997 RMK A01 T02870130  RH  038%=      5-min Rain = 0
KCL1 162328Z 16010KT 29/13 A2997 RMK A01 T02870130  RH  038%=      5-min Rain = 0
KCL1 162329Z 14011KT 29/13 A2997 RMK A01 T02860130  RH  038%=      5-min Rain = 0
KCL1 162330Z 14012G19KT 29/13 A2997 RMK A01 T02870130  RH  038%=      5-min Rain = 0
KCL1 162331Z 15017KT 29/13 A2997 RMK A01 T02870130  RH  038%=      5-min Rain = 0
KCL1 162332Z 16013KT 29/13 A2997 RMK A01 T02860130  RH  038%=      5-min Rain = 0
KCL1 162333Z 15013KT 29/13 A2997 RMK A01 T02870130  RH  038%=      5-min Rain = 0
KCL1 162334Z 15012KT 29/13 A2997 RMK A01 T02870130  RH  038%=      5-min Rain = 0
KCL1 162335Z 15011KT 29/13 A2997 RMK A01 T02860130  RH  038%=      5-min Rain = 0
KCL1 162336Z 14010KT 29/13 A2997 RMK A01 T02860130  RH  038%=      5-min Rain = 0
KCL1 162337Z 15010KT 29/13 A2997 RMK A01 T02860130  RH  038%=      5-min Rain = 0
KCL1 162338Z 19009KT 29/13 A2997 RMK A01 T02870131  RH  038%=      5-min Rain = 0
KCL1 162339Z 16013KT 29/13 A2997 RMK A01 T02890130  RH  038%=      5-min Rain = 0
KCL1 162340Z 15014KT 29/13 A2997 RMK A01 T02880129  RH  037%=      5-min Rain = 0
KCL1 162341Z 15013KT 29/13 A2997 RMK A01 T02860129  RH  038%=      5-min Rain = 0
KCL1 162342Z 17012KT 28/13 A2997 RMK A01 T02840129  RH  038%=      5-min Rain = 0
KCL1 162343Z 18010KT 28/13 A2997 RMK A01 T02840129  RH  039%=      5-min Rain = 0
KCL1 162344Z 19011KT 28/13 A2997 RMK A01 T02840129  RH  038%=      5-min Rain = 0
KCL1 162345Z 18007KT 28/13 A2997 RMK A01 T02840129  RH  038%=      5-min Rain = 0
KCL1 162346Z 16007G12KT 29/13 A2997 RMK A01 T02850130  RH  038%=      5-min Rain = 0
KCL1 162347Z 16013KT 29/13 A2997 RMK A01 T02860130  RH  038%=      5-min Rain = 0
KCL1 162348Z 16011KT 29/13 A2997 RMK A01 T02870130  RH  038%=      5-min Rain = 0
KCL1 162349Z 19012KT 29/13 A2997 RMK A01 T02870130  RH  038%=      5-min Rain = 0
KCL1 162350Z 19013KT 29/13 A2997 RMK A01 T02860129  RH  038%=      5-min Rain = 0
KCL1 162351Z 19011KT 29/13 A2997 RMK A01 T02850129  RH  038%=      5-min Rain = 0
KCL1 162352Z 18012KT 29/13 A2997 RMK A01 T02860129  RH  038%=      5-min Rain = 0
KCL1 162353Z 18010KT 29/13 A2997 RMK A01 T02860128  RH  038%=      5-min Rain = 0
KCL1 162354Z 18010KT 28/13 A2997 RMK A01 T02840128  RH  038%=      5-min Rain = 0
KCL1 162355Z 18010KT 28/13 A2997 RMK A01 T02830129  RH  039%=      5-min Rain = 0
KCL1 162356Z 18009KT 28/13 A2997 RMK A01 T02840129  RH  038%=      5-min Rain = 0
KCL1 162357Z 17008KT 29/13 A2997 RMK A01 T02850129  RH  038%=      5-min Rain = 0
KCL1 162358Z 17010KT 29/13 A2997 RMK A01 T02860129  RH  038%=      5-min Rain = 0
KCL1 162359Z 16009KT 29/13 A2997 RMK A01 T02870128  RH  038%=      5-min Rain = 0
KCL1 170000Z 17004KT 29/13 A2997 RMK A01 T02860128  RH  038%=      5-min Rain = 0
KCL1 170001Z 15007KT 29/13 A2997 RMK A01 T02850128  RH  038%=      5-min Rain = 0
KCL1 170002Z 16011KT 29/13 A2996 RMK A01 T02860128  RH  038%=      5-min Rain = 0
KCL1 170003Z 16009KT 29/13 A2997 RMK A01 T02850128  RH  038%=      5-min Rain = 0
KCL1 170004Z 17008KT 29/13 A2996 RMK A01 T02850128  RH  038%=      5-min Rain = 0
KCL1 170005Z 17012KT 29/13 A2996 RMK A01 T02850128  RH  038%=      5-min Rain = 0
KCL1 170006Z 16011KT 28/13 A2996 RMK A01 T02840127  RH  038%=      5-min Rain = 0
KCL1 170007Z 17011KT 28/13 A2996 RMK A01 T02820127  RH  038%=      5-min Rain = 0
KCL1 170008Z 17009KT 28/13 A2996 RMK A01 T02820127  RH  038%=      5-min Rain = 0
KCL1 170009Z 14007KT 28/13 A2996 RMK A01 T02820127  RH  038%=      5-min Rain = 0
KCL1 170010Z 16007KT 28/13 A2996 RMK A01 T02810127  RH  038%=      5-min Rain = 0
KCL1 170011Z 17007KT 28/13 A2996 RMK A01 T02820127  RH  038%=      5-min Rain = 0
KCL1 170012Z 18011KT 28/13 A2996 RMK A01 T02830127  RH  038%=      5-min Rain = 0
KCL1 170013Z 17010KT 28/13 A2996 RMK A01 T02830126  RH  038%=      5-min Rain = 0
KCL1 170014Z 18008KT 28/13 A2996 RMK A01 T02830125  RH  038%=      5-min Rain = 0
KCL1 170015Z 17010KT 28/13 A2996 RMK A01 T02830126  RH  038%=      5-min Rain = 0
KCL1 170016Z 19009KT 28/13 A2996 RMK A01 T02830126  RH  038%=      5-min Rain = 0
KCL1 170017Z 18007KT 28/13 A2996 RMK A01 T02830125  RH  038%=      5-min Rain = 0
KCL1 170018Z 18009KT 28/13 A2996 RMK A01 T02830125  RH  038%=      5-min Rain = 0
KCL1 170019Z 17010KT 28/13 A2996 RMK A01 T02830125  RH  038%=      5-min Rain = 0
KCL1 170020Z 17009KT 28/13 A2996 RMK A01 T02820125  RH  038%=      5-min Rain = 0
KCL1 170021Z 17013KT 28/13 A2996 RMK A01 T02820125  RH  038%=      5-min Rain = 0
KCL1 170022Z 16013KT 28/13 A2996 RMK A01 T02820125  RH  038%=      5-min Rain = 0
KCL1 170023Z 17011G16KT 28/12 A2996 RMK A01 T02810124  RH  038%=      5-min Rain = 0
KCL1 170024Z 18012KT 28/12 A2996 RMK A01 T02800124  RH  038%=      5-min Rain = 0
KCL1 170025Z 17010KT 28/12 A2996 RMK A01 T02800124  RH  038%=      5-min Rain = 0
KCL1 170026Z 17008KT 28/12 A2996 RMK A01 T02800124  RH  038%=      5-min Rain = 0
KCL1 170027Z 15008KT 28/12 A2996 RMK A01 T02800124  RH  038%=      5-min Rain = 0
KCL1 170028Z 16008KT 28/12 A2996 RMK A01 T02800124  RH  038%=      5-min Rain = 0
KCL1 170029Z 16008KT 28/12 A2996 RMK A01 T02800123  RH  038%=      5-min Rain = 0
KCL1 170030Z 15008G13KT 28/12 A2996 RMK A01 T02800123  RH  038%=      5-min Rain = 0
KCL1 170031Z 17009KT 28/12 A2996 RMK A01 T02800123  RH  038%=      5-min Rain = 0
KCL1 170032Z 16011KT 28/12 A2996 RMK A01 T02800124  RH  038%=      5-min Rain = 0
KCL1 170033Z 17011KT 28/12 A2996 RMK A01 T02790123  RH  038%=      5-min Rain = 0
KCL1 170034Z 15008KT 28/12 A2996 RMK A01 T02790123  RH  038%=      5-min Rain = 0
KCL1 170035Z 15013KT 28/12 A2996 RMK A01 T02790123  RH  038%=      5-min Rain = 0
KCL1 170036Z 16011KT 28/12 A2996 RMK A01 T02780122  RH  038%=      5-min Rain = 0
KCL1 170037Z 15010G16KT 28/12 A2996 RMK A01 T02770122  RH  038%=      5-min Rain = 0
KCL1 170038Z 14013KT 28/12 A2996 RMK A01 T02770123  RH  038%=      5-min Rain = 0
KCL1 170039Z 14009KT 28/12 A2996 RMK A01 T02770122  RH  038%=      5-min Rain = 0
KCL1 170040Z 16009KT 28/12 A2996 RMK A01 T02770123  RH  038%=      5-min Rain = 0
KCL1 170041Z 16010KT 28/12 A2996 RMK A01 T02770123  RH  038%=      5-min Rain = 0
KCL1 170042Z 14009KT 28/12 A2996 RMK A01 T02770123  RH  038%=      5-min Rain = 0
KCL1 170043Z 14010KT 28/12 A2996 RMK A01 T02770123  RH  038%=      5-min Rain = 0
KCL1 170044Z 14012KT 28/12 A2996 RMK A01 T02770123  RH  038%=      5-min Rain = 0
KCL1 170045Z 14013KT 28/12 A2996 RMK A01 T02760122  RH  038%=      5-min Rain = 0
KCL1 170046Z 14010KT 28/12 A2996 RMK A01 T02760122  RH  038%=      5-min Rain = 0
KCL1 170047Z 15010KT 28/12 A2996 RMK A01 T02760122  RH  039%=      5-min Rain = 0
KCL1 170048Z 16007KT 28/12 A2996 RMK A01 T02750122  RH  039%=      5-min Rain = 0
KCL1 170049Z 16006KT 28/12 A2996 RMK A01 T02750122  RH  039%=      5-min Rain = 0
KCL1 170050Z 17008KT 28/12 A2996 RMK A01 T02760122  RH  039%=      5-min Rain = 0
KCL1 170051Z 15006KT 28/12 A2996 RMK A01 T02760122  RH  038%=      5-min Rain = 0
KCL1 170052Z 18009G14KT 28/12 A2996 RMK A01 T02760122  RH  038%=      5-min Rain = 0
KCL1 170053Z 17010KT 28/12 A2996 RMK A01 T02760121  RH  038%=      5-min Rain = 0
KCL1 170054Z 17008KT 28/12 A2996 RMK A01 T02750121  RH  038%=      5-min Rain = 0
KCL1 170055Z 16006KT 28/12 A2996 RMK A01 T02750121  RH  039%=      5-min Rain = 0
KCL1 170056Z 14007KT 27/12 A2996 RMK A01 T02740121  RH  039%=      5-min Rain = 0
KCL1 170057Z 15010KT 27/12 A2996 RMK A01 T02740121  RH  039%=      5-min Rain = 0
KCL1 170058Z 15012KT 27/12 A2996 RMK A01 T02730120  RH  039%=      5-min Rain = 0
KCL1 170059Z 15012KT 27/12 A2996 RMK A01 T02720120  RH  039%=      5-min Rain = 0
KCL1 170100Z 16011KT 27/12 A2996 RMK A01 T02720120  RH  039%=      5-min Rain = 0
KCL1 170101Z 15009KT 27/12 A2996 RMK A01 T02720120  RH  039%=      5-min Rain = 0
KCL1 170102Z 15007KT 27/12 A2996 RMK A01 T02710120  RH  039%=      5-min Rain = 0
KCL1 170103Z 16005KT 27/12 A2996 RMK A01 T02710121  RH  039%=      5-min Rain = 0
KCL1 170104Z 15005KT 27/12 A2996 RMK A01 T02710121  RH  039%=      5-min Rain = 0
KCL1 170105Z 14006KT 27/12 A2996 RMK A01 T02710121  RH  039%=      5-min Rain = 0
KCL1 170106Z 14008KT 27/12 A2996 RMK A01 T02700120  RH  039%=      5-min Rain = 0
KCL1 170107Z 14011KT 27/12 A2996 RMK A01 T02700120  RH  039%=      5-min Rain = 0
KCL1 170108Z 15010KT 27/12 A2996 RMK A01 T02700120  RH  039%=      5-min Rain = 0
KCL1 170109Z 16008KT 27/12 A2996 RMK A01 T02700120  RH  039%=      5-min Rain = 0
KCL1 170110Z 14006KT 27/12 A2996 RMK A01 T02700120  RH  039%=      5-min Rain = 0
KCL1 170111Z 15009KT 27/12 A2996 RMK A01 T02690120  RH  039%=      5-min Rain = 0
KCL1 170112Z 14008KT 27/12 A2996 RMK A01 T02690119  RH  039%=      5-min Rain = 0
KCL1 170113Z 15007KT 27/12 A2996 RMK A01 T02690119  RH  039%=      5-min Rain = 0
KCL1 170114Z 15006KT 27/12 A2996 RMK A01 T02680119  RH  039%=      5-min Rain = 0
KCL1 170115Z 15006KT 27/12 A2996 RMK A01 T02680119  RH  040%=      5-min Rain = 0
KCL1 170116Z 14010KT 27/12 A2996 RMK A01 T02670119  RH  040%=      5-min Rain = 0
KCL1 170117Z 15009KT 27/12 A2996 RMK A01 T02670119  RH  040%=      5-min Rain = 0
KCL1 170118Z 15011KT 27/12 A2996 RMK A01 T02660118  RH  040%=      5-min Rain = 0
KCL1 170119Z 15008KT 27/12 A2996 RMK A01 T02660118  RH  040%=      5-min Rain = 0
KCL1 170120Z 15009KT 27/12 A2996 RMK A01 T02660118  RH  040%=      5-min Rain = 0
KCL1 170121Z 15011KT 27/12 A2996 RMK A01 T02660117  RH  040%=      5-min Rain = 0
KCL1 170122Z 14011KT 27/12 A2996 RMK A01 T02660118  RH  040%=      5-min Rain = 0
KCL1 170123Z 14012KT 27/12 A2996 RMK A01 T02650117  RH  040%=      5-min Rain = 0
KCL1 170124Z 14011KT 27/12 A2996 RMK A01 T02650117  RH  040%=      5-min Rain = 0
KCL1 170125Z 15010KT 27/12 A2996 RMK A01 T02650116  RH  040%=      5-min Rain = 0
KCL1 170126Z 15009KT 27/12 A2996 RMK A01 T02650116  RH  040%=      5-min Rain = 0
KCL1 170127Z 14007KT 27/12 A2997 RMK A01 T02650117  RH  040%=      5-min Rain = 0
KCL1 170128Z 14007KT 26/12 A2997 RMK A01 T02640116  RH  040%=      5-min Rain = 0
KCL1 170129Z 13007KT 26/12 A2997 RMK A01 T02630117  RH  040%=      5-min Rain = 0
KCL1 170130Z 14008KT 26/12 A2997 RMK A01 T02610116  RH  040%=      5-min Rain = 0
KCL1 170131Z 14007KT 26/12 A2997 RMK A01 T02600116  RH  041%=      5-min Rain = 0
KCL1 170132Z 14008KT 26/12 A2997 RMK A01 T02590116  RH  041%=      5-min Rain = 0
KCL1 170133Z 14009KT 26/12 A2997 RMK A01 T02580115  RH  041%=      5-min Rain = 0
KCL1 170134Z 14008KT 26/12 A2997 RMK A01 T02570115  RH  041%=      5-min Rain = 0
KCL1 170135Z 14009KT 26/12 A2997 RMK A01 T02570115  RH  041%=      5-min Rain = 0
KCL1 170136Z 14009KT 26/12 A2997 RMK A01 T02570115  RH  041%=      5-min Rain = 0
KCL1 170137Z 14010KT 26/12 A2997 RMK A01 T02570115  RH  041%=      5-min Rain = 0
KCL1 170138Z 14010KT 26/11 A2997 RMK A01 T02560114  RH  041%=      5-min Rain = 0
KCL1 170139Z 14010KT 26/11 A2997 RMK A01 T02560114  RH  041%=      5-min Rain = 0
KCL1 170140Z 14009KT 26/11 A2997 RMK A01 T02560114  RH  041%=      5-min Rain = 0
KCL1 170141Z 14009KT 26/11 A2997 RMK A01 T02560114  RH  041%=      5-min Rain = 0
KCL1 170142Z 14007KT 26/11 A2997 RMK A01 T02560114  RH  041%=      5-min Rain = 0
KCL1 170143Z 14007KT 26/11 A2997 RMK A01 T02560114  RH  041%=      5-min Rain = 0
KCL1 170144Z 15008KT 26/11 A2997 RMK A01 T02550113  RH  041%=      5-min Rain = 0
KCL1 170145Z 14009KT 25/11 A2997 RMK A01 T02540113  RH  041%=      5-min Rain = 0
KCL1 170146Z 14008KT 25/11 A2997 RMK A01 T02540113  RH  041%=      5-min Rain = 0
KCL1 170147Z 14009KT 25/11 A2997 RMK A01 T02540113  RH  041%=      5-min Rain = 0
KCL1 170148Z 14007KT 25/11 A2997 RMK A01 T02540113  RH  041%=      5-min Rain = 0
KCL1 170149Z 15008KT 25/11 A2997 RMK A01 T02540113  RH  041%=      5-min Rain = 0
KCL1 170150Z 14010KT 25/11 A2997 RMK A01 T02540112  RH  041%=      5-min Rain = 0
KCL1 170151Z 14010KT 25/11 A2997 RMK A01 T02540112  RH  041%=      5-min Rain = 0
KCL1 170152Z 14011KT 25/11 A2997 RMK A01 T02540111  RH  041%=      5-min Rain = 0
KCL1 170153Z 14013G18KT 25/11 A2997 RMK A01 T02540110  RH  040%=      5-min Rain = 0
KCL1 170154Z 14013KT 25/11 A2997 RMK A01 T02540108  RH  040%=      5-min Rain = 0
KCL1 170155Z 13012KT 25/11 A2997 RMK A01 T02540107  RH  040%=      5-min Rain = 0
KCL1 170156Z 14009KT 25/11 A2997 RMK A01 T02530107  RH  040%=      5-min Rain = 0
KCL1 170157Z 14010KT 25/11 A2997 RMK A01 T02520106  RH  040%=      5-min Rain = 0
KCL1 170158Z 14011KT 25/11 A2997 RMK A01 T02510105  RH  040%=      5-min Rain = 0
KCL1 170159Z 14010KT 25/11 A2997 RMK A01 T02510105  RH  040%=      5-min Rain = 0
KCL1 170200Z 13011G16KT 25/10 A2997 RMK A01 T02500104  RH  040%=      5-min Rain = 0
KCL1 170201Z 13011KT 25/10 A2997 RMK A01 T02500104  RH  040%=      5-min Rain = 0
KCL1 170202Z 14010KT 25/10 A2997 RMK A01 T02500104  RH  040%=      5-min Rain = 0
KCL1 170203Z 13010KT 25/10 A2997 RMK A01 T02490103  RH  040%=      5-min Rain = 0
KCL1 170204Z 13009KT 25/10 A2997 RMK A01 T02490103  RH  040%=      5-min Rain = 0
KCL1 170205Z 13010KT 25/10 A2997 RMK A01 T02480103  RH  040%=      5-min Rain = 0
KCL1 170206Z 13010KT 25/10 A2997 RMK A01 T02470102  RH  040%=      5-min Rain = 0
KCL1 170207Z 13008KT 25/10 A2997 RMK A01 T02470102  RH  040%=      5-min Rain = 0
KCL1 170208Z 13009KT 25/10 A2997 RMK A01 T02460102  RH  040%=      5-min Rain = 0
KCL1 170209Z 13011KT 25/10 A2997 RMK A01 T02450101  RH  040%=      5-min Rain = 0
KCL1 170210Z 13010KT 25/10 A2997 RMK A01 T02450101  RH  040%=      5-min Rain = 0
KCL1 170211Z 13009G14KT 24/10 A2997 RMK A01 T02440101  RH  040%=      5-min Rain = 0
KCL1 170212Z 13011KT 24/10 A2997 RMK A01 T02440100  RH  040%=      5-min Rain = 0
KCL1 170213Z 14008KT 24/10 A2997 RMK A01 T02440100  RH  040%=      5-min Rain = 0
KCL1 170214Z 13010KT 24/10 A2997 RMK A01 T02440100  RH  040%=      5-min Rain = 0
KCL1 170215Z 13010KT 24/10 A2997 RMK A01 T02440100  RH  040%=      5-min Rain = 0
KCL1 170216Z 13010KT 24/10 A2997 RMK A01 T02440100  RH  040%=      5-min Rain = 0
KCL1 170217Z 13010KT 24/10 A2997 RMK A01 T02440100  RH  040%=      5-min Rain = 0
KCL1 170218Z 13010KT 24/10 A2998 RMK A01 T02440100  RH  040%=      5-min Rain = 0
KCL1 170219Z 13010KT 24/10 A2998 RMK A01 T02440100  RH  040%=      5-min Rain = 0
KCL1 170220Z 13010KT 24/10 A2998 RMK A01 T02430099  RH  040%=      5-min Rain = 0
KCL1 170221Z 13011KT 24/10 A2998 RMK A01 T02430100  RH  040%=      5-min Rain = 0
KCL1 170222Z 13012KT 24/10 A2998 RMK A01 T02430100  RH  040%=      5-min Rain = 0
KCL1 170223Z 13011KT 24/10 A2998 RMK A01 T02430100  RH  040%=      5-min Rain = 0
KCL1 170224Z 13010KT 24/10 A2998 RMK A01 T02440100  RH  040%=      5-min Rain = 0
KCL1 170225Z 13010KT 24/10 A2998 RMK A01 T02440100  RH  040%=      5-min Rain = 0
KCL1 170226Z 13010KT 24/10 A2998 RMK A01 T02430100  RH  040%=      5-min Rain = 0
KCL1 170227Z 13010G15KT 24/10 A2998 RMK A01 T02430100  RH  040%=      5-min Rain = 0
KCL1 170228Z 13010KT 24/10 A2998 RMK A01 T02420100  RH  040%=      5-min Rain = 0
KCL1 170229Z 13011KT 24/10 A2998 RMK A01 T02430100  RH  040%=      5-min Rain = 0
KCL1 170230Z 13011KT 24/10 A2998 RMK A01 T02420100  RH  041%=      5-min Rain = 0
KCL1 170231Z 13009KT 24/10 A2998 RMK A01 T02420100  RH  041%=      5-min Rain = 0
KCL1 170232Z 13010KT 24/10 A2998 RMK A01 T02420100  RH  041%=      5-min Rain = 0
KCL1 170233Z 13010KT 24/10 A2998 RMK A01 T02420100  RH  041%=      5-min Rain = 0
KCL1 170234Z 13009KT 24/10 A2998 RMK A01 T02400100  RH  041%=      5-min Rain = 0
KCL1 170235Z 13009KT 24/10 A2998 RMK A01 T02400100  RH  041%=      5-min Rain = 0
KCL1 170236Z 13010KT 24/10 A2998 RMK A01 T02400100  RH  041%=      5-min Rain = 0
KCL1 170237Z 13010KT 24/10 A2998 RMK A01 T02400100  RH  041%=      5-min Rain = 0
KCL1 170238Z 13012KT 24/10 A2998 RMK A01 T02400100  RH  041%=      5-min Rain = 0
KCL1 170239Z 13011KT 24/10 A2998 RMK A01 T02400100  RH  041%=      5-min Rain = 0
KCL1 170240Z 13009KT 24/10 A2998 RMK A01 T02400100  RH  041%=      5-min Rain = 0
KCL1 170241Z 13010KT 24/10 A2998 RMK A01 T02400100  RH  041%=      5-min Rain = 0
KCL1 170242Z 13009KT 24/10 A2998 RMK A01 T02400100  RH  041%=      5-min Rain = 0
KCL1 170243Z 13009KT 24/10 A2998 RMK A01 T02390100  RH  041%=      5-min Rain = 0
KCL1 170244Z 12010KT 24/10 A2998 RMK A01 T02390100  RH  042%=      5-min Rain = 0
KCL1 170245Z 13009KT 24/10 A2998 RMK A01 T02380100  RH  042%=      5-min Rain = 0
KCL1 170246Z 13011KT 24/10 A2998 RMK A01 T02370100  RH  042%=      5-min Rain = 0
KCL1 170247Z 12009KT 24/10 A2998 RMK A01 T02370100  RH  042%=      5-min Rain = 0
KCL1 170248Z 12009KT 24/10 A2998 RMK A01 T02370100  RH  042%=      5-min Rain = 0
KCL1 170249Z 11009KT 24/10 A2998 RMK A01 T02360100  RH  042%=      5-min Rain = 0
KCL1 170250Z 10009KT 24/10 A2998 RMK A01 T02350101  RH  043%=      5-min Rain = 0
KCL1 170251Z 10010KT 23/10 A2998 RMK A01 T02330104  RH  044%=      5-min Rain = 0
KCL1 170252Z 11010KT 23/11 A2998 RMK A01 T02310110  RH  046%=      5-min Rain = 0
KCL1 170253Z 11009KT 23/11 A2998 RMK A01 T02290114  RH  048%=      5-min Rain = 0
KCL1 170254Z 11010KT 23/12 A2998 RMK A01 T02280116  RH  049%=      5-min Rain = 0
KCL1 170255Z 11010KT 23/12 A2998 RMK A01 T02260117  RH  050%=      5-min Rain = 0
KCL1 170256Z 11010KT 23/12 A2998 RMK A01 T02250118  RH  051%=      5-min Rain = 0
KCL1 170257Z 11009KT 22/12 A2998 RMK A01 T02240118  RH  051%=      5-min Rain = 0
KCL1 170258Z 11010KT 22/12 A2998 RMK A01 T02220119  RH  052%=      5-min Rain = 0
KCL1 170259Z 12010KT 22/12 A2998 RMK A01 T02210120  RH  053%=      5-min Rain = 0
KCL1 170300Z 12010KT 22/12 A2999 RMK A01 T02210120  RH  053%=      5-min Rain = 0
KCL1 170301Z 12011KT 22/12 A2999 RMK A01 T02200120  RH  053%=      5-min Rain = 0
KCL1 170302Z 13012G17KT 22/12 A2999 RMK A01 T02210122  RH  054%=      5-min Rain = 0
KCL1 170303Z 12012KT 22/13 A2999 RMK A01 T02220126  RH  055%=      5-min Rain = 0
KCL1 170304Z 12012KT 22/13 A2999 RMK A01 T02240129  RH  055%=      5-min Rain = 0
KCL1 170305Z 13013KT 23/13 A2999 RMK A01 T02250130  RH  055%=      5-min Rain = 0
KCL1 170306Z 13014G19KT 23/13 A2999 RMK A01 T02260131  RH  055%=      5-min Rain = 0
KCL1 170307Z 13013KT 23/13 A2999 RMK A01 T02270131  RH  054%=      5-min Rain = 0
KCL1 170308Z 13015KT 23/13 A2999 RMK A01 T02270131  RH  054%=      5-min Rain = 0
KCL1 170309Z 13013KT 23/13 A2999 RMK A01 T02280131  RH  054%=      5-min Rain = 0
KCL1 170310Z 12013G21KT 23/13 A2999 RMK A01 T02280131  RH  054%=      5-min Rain = 0
KCL1 170311Z 13015KT 23/13 A2999 RMK A01 T02280130  RH  054%=      5-min Rain = 0
KCL1 170312Z 13014KT 23/13 A2999 RMK A01 T02280130  RH  054%=      5-min Rain = 0
KCL1 170313Z 12015KT 23/13 A2999 RMK A01 T02280130  RH  054%=      5-min Rain = 0
KCL1 170314Z 12014KT 23/13 A2999 RMK A01 T02270129  RH  054%=      5-min Rain = 0
KCL1 170315Z 12016KT 23/13 A2999 RMK A01 T02270130  RH  054%=      5-min Rain = 0
KCL1 170316Z 13014G19KT 23/13 A2999 RMK A01 T02260130  RH  054%=      5-min Rain = 0
KCL1 170317Z 12017KT 23/13 A2999 RMK A01 T02250130  RH  055%=      5-min Rain = 0
KCL1 170318Z 12015KT 23/13 A2999 RMK A01 T02250131  RH  055%=      5-min Rain = 0
KCL1 170319Z 12014KT 22/13 A2999 RMK A01 T02240131  RH  055%=      5-min Rain = 0
KCL1 170320Z 12014KT 22/13 A2999 RMK A01 T02240131  RH  056%=      5-min Rain = 0
KCL1 170321Z 12015KT 22/13 A2999 RMK A01 T02230130  RH  056%=      5-min Rain = 0
KCL1 170322Z 12011KT 22/13 A2999 RMK A01 T02230131  RH  056%=      5-min Rain = 0
KCL1 170323Z 12013KT 22/13 A30 RMK A01 T02220130  RH  056%=      5-min Rain = 0
KCL1 170324Z 12012KT 22/13 A30 RMK A01 T02220131  RH  056%=      5-min Rain = 0
KCL1 170325Z 12013KT 22/13 A30 RMK A01 T02220131  RH  056%=      5-min Rain = 0
KCL1 170326Z 13012KT 22/13 A30 RMK A01 T02210130  RH  056%=      5-min Rain = 0
KCL1 170327Z 12011KT 22/13 A30 RMK A01 T02210130  RH  056%=      5-min Rain = 0
KCL1 170328Z 12013G18KT 22/13 A30 RMK A01 T02200130  RH  056%=      5-min Rain = 0
KCL1 170329Z 12013KT 22/13 A30 RMK A01 T02200131  RH  057%=      5-min Rain = 0
KCL1 170330Z 13012KT 22/13 A30 RMK A01 T02200130  RH  057%=      5-min Rain = 0
KCL1 170331Z 13012KT 22/13 A30 RMK A01 T02210131  RH  057%=      5-min Rain = 0
KCL1 170332Z 12013KT 22/13 A30 RMK A01 T02200130  RH  057%=      5-min Rain = 0
KCL1 170333Z 12012KT 22/13 A30 RMK A01 T02200130  RH  057%=      5-min Rain = 0
KCL1 170334Z 13012KT 22/13 A30 RMK A01 T02200131  RH  057%=      5-min Rain = 0
KCL1 170335Z 13012KT 22/13 A30 RMK A01 T02200130  RH  057%=      5-min Rain = 0
KCL1 170336Z 13012KT 22/13 A30 RMK A01 T02190130  RH  057%=      5-min Rain = 0
KCL1 170337Z 12010KT 22/13 A30 RMK A01 T02190130  RH  057%=      5-min Rain = 0
KCL1 170338Z 12011KT 22/13 A30 RMK A01 T02190130  RH  057%=      5-min Rain = 0
KCL1 170339Z 12010KT 22/13 A30 RMK A01 T02180130  RH  057%=      5-min Rain = 0
KCL1 170340Z 12011KT 22/13 A30 RMK A01 T02180130  RH  057%=      5-min Rain = 0
KCL1 170341Z 13011KT 22/13 A30 RMK A01 T02180130  RH  057%=      5-min Rain = 0
KCL1 170342Z 13010KT 22/13 A30 RMK A01 T02170129  RH  057%=      5-min Rain = 0
KCL1 170343Z 12010KT 22/13 A30 RMK A01 T02170129  RH  057%=      5-min Rain = 0
KCL1 170344Z 13010KT 22/13 A30 RMK A01 T02170129  RH  057%=      5-min Rain = 0
KCL1 170345Z 13010KT 22/13 A30 RMK A01 T02160129  RH  057%=      5-min Rain = 0
KCL1 170346Z 13010KT 22/13 A30 RMK A01 T02160129  RH  057%=      5-min Rain = 0
KCL1 170347Z 14010KT 22/13 A30 RMK A01 T02160128  RH  057%=      5-min Rain = 0
KCL1 170348Z 14009KT 22/13 A30 RMK A01 T02160128  RH  057%=      5-min Rain = 0
KCL1 170349Z 14010KT 22/13 A30 RMK A01 T02160128  RH  057%=      5-min Rain = 0
KCL1 170350Z 13010KT 22/13 A30 RMK A01 T02150128  RH  057%=      5-min Rain = 0
KCL1 170351Z 13010KT 22/13 A30 RMK A01 T02150128  RH  057%=      5-min Rain = 0
KCL1 170352Z 14010KT 22/13 A30 RMK A01 T02150128  RH  057%=      5-min Rain = 0
KCL1 170353Z 14009KT 22/13 A30 RMK A01 T02150128  RH  058%=      5-min Rain = 0
KCL1 170354Z 14011KT 22/13 A30 RMK A01 T02150128  RH  058%=      5-min Rain = 0
KCL1 170355Z 14010KT 22/13 A30 RMK A01 T02150128  RH  058%=      5-min Rain = 0
KCL1 170356Z 14009KT 22/13 A30 RMK A01 T02150128  RH  058%=      5-min Rain = 0
KCL1 170357Z 14011KT 21/13 A30 RMK A01 T02140128  RH  058%=      5-min Rain = 0
KCL1 170358Z 14008KT 21/13 A3001 RMK A01 T02140128  RH  058%=      5-min Rain = 0
KCL1 170359Z 14010KT 21/13 A3001 RMK A01 T02140128  RH  058%=      5-min Rain = 0
KCL1 170400Z 14011KT 21/13 A3001 RMK A01 T02130127  RH  058%=      5-min Rain = 0
KCL1 170401Z 15008KT 21/13 A3001 RMK A01 T02130127  RH  058%=      5-min Rain = 0
KCL1 170402Z 15010KT 21/13 A3001 RMK A01 T02130128  RH  058%=      5-min Rain = 0
KCL1 170403Z 14009KT 21/13 A3001 RMK A01 T02130128  RH  058%=      5-min Rain = 0
KCL1 170404Z 14011KT 21/13 A3001 RMK A01 T02130128  RH  058%=      5-min Rain = 0
KCL1 170405Z 15010KT 21/13 A3001 RMK A01 T02130127  RH  058%=      5-min Rain = 0
KCL1 170406Z 15009KT 21/13 A3001 RMK A01 T02130128  RH  058%=      5-min Rain = 0
KCL1 170407Z 14009KT 21/13 A3001 RMK A01 T02130127  RH  058%=      5-min Rain = 0
KCL1 170408Z 15009KT 21/13 A3001 RMK A01 T02130127  RH  058%=      5-min Rain = 0
KCL1 170409Z 15007KT 21/13 A3001 RMK A01 T02120127  RH  058%=      5-min Rain = 0
KCL1 170410Z 14009KT 21/13 A3001 RMK A01 T02110127  RH  059%=      5-min Rain = 0
KCL1 170411Z 14007KT 21/13 A3001 RMK A01 T02110127  RH  059%=      5-min Rain = 0
KCL1 170412Z 14005KT 21/13 A3001 RMK A01 T02110127  RH  059%=      5-min Rain = 0
KCL1 170413Z 14007KT 21/13 A3001 RMK A01 T02110127  RH  059%=      5-min Rain = 0
KCL1 170414Z 15008KT 21/13 A3001 RMK A01 T02100127  RH  059%=      5-min Rain = 0
KCL1 170415Z 14008KT 21/13 A3001 RMK A01 T02090127  RH  059%=      5-min Rain = 0
KCL1 170416Z 15009KT 21/13 A3001 RMK A01 T02090127  RH  059%=      5-min Rain = 0
KCL1 170417Z 14010KT 21/13 A3001 RMK A01 T02090127  RH  059%=      5-min Rain = 0
KCL1 170418Z 15011KT 21/13 A3001 RMK A01 T02090126  RH  059%=      5-min Rain = 0
KCL1 170419Z 14009KT 21/13 A3001 RMK A01 T02110127  RH  059%=      5-min Rain = 0
KCL1 170420Z 14008KT 21/13 A3001 RMK A01 T02110127  RH  059%=      5-min Rain = 0
KCL1 170421Z 14009KT 21/13 A3001 RMK A01 T02100127  RH  059%=      5-min Rain = 0
KCL1 170422Z 14008KT 21/13 A3001 RMK A01 T02100126  RH  059%=      5-min Rain = 0
KCL1 170423Z 15010KT 21/13 A3001 RMK A01 T02090126  RH  059%=      5-min Rain = 0
KCL1 170424Z 15010KT 21/13 A3001 RMK A01 T02090126  RH  059%=      5-min Rain = 0
KCL1 170425Z 15010KT 21/13 A3001 RMK A01 T02090126  RH  059%=      5-min Rain = 0
KCL1 170426Z 15010KT 21/13 A3001 RMK A01 T02100125  RH  058%=      5-min Rain = 0
KCL1 170427Z 15011KT 21/13 A3001 RMK A01 T02100125  RH  058%=      5-min Rain = 0
KCL1 170428Z 15010KT 21/13 A3001 RMK A01 T02100125  RH  058%=      5-min Rain = 0
KCL1 170429Z 15009KT 21/13 A3001 RMK A01 T02110125  RH  058%=      5-min Rain = 0
KCL1 170430Z 15008KT 21/13 A3001 RMK A01 T02100125  RH  058%=      5-min Rain = 0
KCL1 170431Z 15011KT 21/13 A3001 RMK A01 T02100125  RH  058%=      5-min Rain = 0
KCL1 170432Z 14011KT 21/13 A3001 RMK A01 T02100125  RH  058%=      5-min Rain = 0
KCL1 170433Z 15011KT 21/13 A3001 RMK A01 T02100125  RH  058%=      5-min Rain = 0
KCL1 170434Z 15010KT 21/12 A3001 RMK A01 T02090124  RH  058%=      5-min Rain = 0
KCL1 170435Z 15010KT 21/12 A3001 RMK A01 T02080124  RH  059%=      5-min Rain = 0
KCL1 170436Z 15010KT 21/13 A3001 RMK A01 T02080125  RH  059%=      5-min Rain = 0
KCL1 170437Z 14012KT 21/13 A3001 RMK A01 T02080125  RH  059%=      5-min Rain = 0
KCL1 170438Z 15010KT 21/13 A3001 RMK A01 T02080126  RH  059%=      5-min Rain = 0
KCL1 170439Z 14011KT 21/13 A3001 RMK A01 T02080125  RH  059%=      5-min Rain = 0
KCL1 170440Z 14009KT 21/13 A3001 RMK A01 T02070126  RH  060%=      5-min Rain = 0
KCL1 170441Z 14010KT 21/13 A3001 RMK A01 T02070126  RH  060%=      5-min Rain = 0
KCL1 170442Z 15009KT 21/13 A3001 RMK A01 T02060126  RH  060%=      5-min Rain = 0
KCL1 170443Z 15010KT 21/13 A3001 RMK A01 T02060126  RH  060%=      5-min Rain = 0
KCL1 170444Z 15011KT 21/13 A3001 RMK A01 T02050126  RH  060%=      5-min Rain = 0
KCL1 170445Z 15009KT 21/13 A3001 RMK A01 T02060126  RH  060%=      5-min Rain = 0
KCL1 170446Z 14009KT 21/13 A3001 RMK A01 T02050126  RH  060%=      5-min Rain = 0
KCL1 170447Z 15008KT 21/13 A3001 RMK A01 T02050126  RH  060%=      5-min Rain = 0
KCL1 170448Z 15010KT 21/13 A3001 RMK A01 T02050126  RH  060%=      5-min Rain = 0
KCL1 170449Z 15010KT 20/13 A3001 RMK A01 T02040126  RH  061%=      5-min Rain = 0
KCL1 170450Z 14009KT 20/13 A3001 RMK A01 T02040125  RH  060%=      5-min Rain = 0
KCL1 170451Z 15008KT 20/13 A3001 RMK A01 T02040125  RH  060%=      5-min Rain = 0
KCL1 170452Z 14011KT 20/13 A3001 RMK A01 T02040125  RH  060%=      5-min Rain = 0
KCL1 170453Z 14010KT 20/13 A3001 RMK A01 T02040125  RH  060%=      5-min Rain = 0
KCL1 170454Z 14012KT 21/13 A3001 RMK A01 T02050125  RH  060%=      5-min Rain = 0
KCL1 170455Z 14011KT 20/13 A3001 RMK A01 T02040125  RH  060%=      5-min Rain = 0
KCL1 170456Z 14011KT 20/12 A3001 RMK A01 T02040124  RH  060%=      5-min Rain = 0
KCL1 170457Z 14011KT 20/13 A3001 RMK A01 T02040125  RH  060%=      5-min Rain = 0
KCL1 170458Z 14012KT 20/12 A3001 RMK A01 T02040124  RH  060%=      5-min Rain = 0
KCL1 170459Z 14011KT 20/12 A3001 RMK A01 T02040124  RH  060%=      5-min Rain = 0

Page generated in 0.1549 seconds.